Observation data for Romero 11 SSW on 01/17/2019      Previous  Date  Next       Current Mesonet Observations  Soil Data  Daily Summary Page  Observations in Plain Language
KBR1 170600Z 29013KT 08/M03 A3007 RMK A01 T00841032  RH  044%=      5-min Rain = 0
KBR1 170601Z 29013KT 09/M03 A3007 RMK A01 T00851032  RH  044%=      5-min Rain = 0
KBR1 170602Z 29014KT 08/M03 A3007 RMK A01 T00841032  RH  044%=      5-min Rain = 0
KBR1 170603Z 29013KT 09/M03 A3007 RMK A01 T00851032  RH  044%=      5-min Rain = 0
KBR1 170604Z 29014KT 09/M03 A3007 RMK A01 T00851032  RH  044%=      5-min Rain = 0
KBR1 170605Z 29013KT 08/M03 A3007 RMK A01 T00841032  RH  044%=      5-min Rain = 0
KBR1 170606Z 29013KT 08/M03 A3007 RMK A01 T00841033  RH  044%=      5-min Rain = 0
KBR1 170607Z 29013KT 09/M03 A3007 RMK A01 T00851032  RH  044%=      5-min Rain = 0
KBR1 170608Z 28012KT 09/M03 A3007 RMK A01 T00851032  RH  043%=      5-min Rain = 0
KBR1 170609Z 28013KT 09/M03 A3007 RMK A01 T00851032  RH  043%=      5-min Rain = 0
KBR1 170610Z 29012KT 09/M03 A3007 RMK A01 T00851032  RH  043%=      5-min Rain = 0
KBR1 170611Z 28012KT 09/M03 A3007 RMK A01 T00861032  RH  043%=      5-min Rain = 0
KBR1 170612Z 28011KT 09/M03 A3008 RMK A01 T00861033  RH  043%=      5-min Rain = 0
KBR1 170613Z 28011KT 09/M03 A3008 RMK A01 T00861033  RH  043%=      5-min Rain = 0
KBR1 170614Z 28012KT 09/M03 A3008 RMK A01 T00851033  RH  043%=      5-min Rain = 0
KBR1 170615Z 28010KT 09/M03 A3008 RMK A01 T00861033  RH  043%=      5-min Rain = 0
KBR1 170616Z 28010KT 09/M03 A3008 RMK A01 T00861034  RH  043%=      5-min Rain = 0
KBR1 170617Z 29009KT 09/M03 A3008 RMK A01 T00851034  RH  043%=      5-min Rain = 0
KBR1 170618Z 28009KT 09/M03 A3008 RMK A01 T00851033  RH  043%=      5-min Rain = 0
KBR1 170619Z 28009KT 08/M03 A3008 RMK A01 T00841034  RH  043%=      5-min Rain = 0
KBR1 170620Z 28010KT 08/M03 A3008 RMK A01 T00841033  RH  043%=      5-min Rain = 0
KBR1 170621Z 28012KT 08/M03 A3008 RMK A01 T00841033  RH  043%=      5-min Rain = 0
KBR1 170622Z 29011KT 09/M03 A3008 RMK A01 T00851033  RH  043%=      5-min Rain = 0
KBR1 170623Z 28010KT 09/M03 A3008 RMK A01 T00861034  RH  043%=      5-min Rain = 0
KBR1 170624Z 29011KT 09/M03 A3008 RMK A01 T00861034  RH  043%=      5-min Rain = 0
KBR1 170625Z 29012KT 09/M03 A3008 RMK A01 T00851034  RH  043%=      5-min Rain = 0
KBR1 170626Z 29011KT 09/M03 A3008 RMK A01 T00851034  RH  043%=      5-min Rain = 0
KBR1 170627Z 29012KT 09/M03 A3008 RMK A01 T00851034  RH  043%=      5-min Rain = 0
KBR1 170628Z 29012KT 09/M03 A3008 RMK A01 T00851034  RH  043%=      5-min Rain = 0
KBR1 170629Z 29011KT 09/M03 A3008 RMK A01 T00851034  RH  043%=      5-min Rain = 0
KBR1 170630Z 29010KT 08/M03 A3008 RMK A01 T00841034  RH  043%=      5-min Rain = 0
KBR1 170631Z 29012KT 08/M03 A3008 RMK A01 T00831034  RH  043%=      5-min Rain = 0
KBR1 170632Z 28011KT 08/M03 A3008 RMK A01 T00821034  RH  044%=      5-min Rain = 0
KBR1 170633Z 28013KT 08/M03 A3007 RMK A01 T00821034  RH  044%=      5-min Rain = 0
KBR1 170634Z 28012KT 08/M03 A3007 RMK A01 T00831034  RH  043%=      5-min Rain = 0
KBR1 170635Z 28013KT 08/M04 A3007 RMK A01 T00841035  RH  043%=      5-min Rain = 0
KBR1 170636Z 29013G19KT 08/M04 A3007 RMK A01 T00841035  RH  043%=      5-min Rain = 0
KBR1 170637Z 29014KT 08/M03 A3008 RMK A01 T00841034  RH  043%=      5-min Rain = 0
KBR1 170638Z 29015KT 08/M03 A3008 RMK A01 T00841034  RH  043%=      5-min Rain = 0
KBR1 170639Z 30015KT 08/M03 A3008 RMK A01 T00841034  RH  043%=      5-min Rain = 0
KBR1 170640Z 30016KT 09/M03 A3008 RMK A01 T00851034  RH  043%=      5-min Rain = 0
KBR1 170641Z 29013KT 09/M04 A3008 RMK A01 T00851035  RH  043%=      5-min Rain = 0
KBR1 170642Z 29012KT 09/M03 A3008 RMK A01 T00851034  RH  043%=      5-min Rain = 0
KBR1 170643Z 30013KT 08/M03 A3008 RMK A01 T00841034  RH  043%=      5-min Rain = 0
KBR1 170644Z 30013KT 08/M04 A3008 RMK A01 T00831035  RH  043%=      5-min Rain = 0
KBR1 170645Z 30013KT 08/M03 A3008 RMK A01 T00831034  RH  043%=      5-min Rain = 0
KBR1 170646Z 29013KT 08/M03 A3008 RMK A01 T00831034  RH  043%=      5-min Rain = 0
KBR1 170647Z 29013KT 08/M03 A3008 RMK A01 T00831034  RH  043%=      5-min Rain = 0
KBR1 170648Z 30013KT 08/M03 A3008 RMK A01 T00831034  RH  044%=      5-min Rain = 0
KBR1 170649Z 29012KT 08/M03 A3008 RMK A01 T00821034  RH  044%=      5-min Rain = 0
KBR1 170650Z 30012KT 08/M03 A3008 RMK A01 T00811034  RH  044%=      5-min Rain = 0
KBR1 170651Z 29012KT 08/M04 A3008 RMK A01 T00801035  RH  044%=      5-min Rain = 0
KBR1 170652Z 29012KT 08/M03 A3008 RMK A01 T00811034  RH  044%=      5-min Rain = 0
KBR1 170653Z 30012KT 08/M04 A3008 RMK A01 T00811035  RH  044%=      5-min Rain = 0
KBR1 170654Z 30011KT 08/M03 A3009 RMK A01 T00801034  RH  044%=      5-min Rain = 0
KBR1 170655Z 30012KT 08/M04 A3009 RMK A01 T00791035  RH  044%=      5-min Rain = 0
KBR1 170656Z 30011KT 08/M04 A3009 RMK A01 T00791035  RH  045%=      5-min Rain = 0
KBR1 170657Z 29011KT 08/M04 A3009 RMK A01 T00781035  RH  045%=      5-min Rain = 0
KBR1 170658Z 30012KT 08/M04 A3009 RMK A01 T00771035  RH  045%=      5-min Rain = 0
KBR1 170659Z 30012KT 08/M04 A3009 RMK A01 T00771035  RH  045%=      5-min Rain = 0
KBR1 170700Z 29011KT 08/M04 A3009 RMK A01 T00771035  RH  045%=      5-min Rain = 0
KBR1 170701Z 29011KT 08/M04 A3009 RMK A01 T00771035  RH  045%=      5-min Rain = 0
KBR1 170702Z 29011KT 08/M04 A3009 RMK A01 T00761035  RH  045%=      5-min Rain = 0
KBR1 170703Z 29011KT 08/M04 A3009 RMK A01 T00751035  RH  045%=      5-min Rain = 0
KBR1 170704Z 29010KT 08/M04 A3009 RMK A01 T00751035  RH  045%=      5-min Rain = 0
KBR1 170705Z 29010KT 08/M04 A3008 RMK A01 T00751035  RH  046%=      5-min Rain = 0
KBR1 170706Z 28010KT 07/M04 A3008 RMK A01 T00741035  RH  046%=      5-min Rain = 0
KBR1 170707Z 29010KT 07/M04 A3008 RMK A01 T00741035  RH  046%=      5-min Rain = 0
KBR1 170708Z 29011KT 07/M04 A3008 RMK A01 T00741036  RH  046%=      5-min Rain = 0
KBR1 170709Z 29009KT 07/M04 A3008 RMK A01 T00731036  RH  046%=      5-min Rain = 0
KBR1 170710Z 29011KT 07/M04 A3008 RMK A01 T00741036  RH  046%=      5-min Rain = 0
KBR1 170711Z 29011KT 07/M04 A3008 RMK A01 T00741036  RH  046%=      5-min Rain = 0
KBR1 170712Z 29010KT 07/M04 A3008 RMK A01 T00731035  RH  046%=      5-min Rain = 0
KBR1 170713Z 29012KT 07/M04 A3008 RMK A01 T00731035  RH  046%=      5-min Rain = 0
KBR1 170714Z 29011KT 07/M04 A3008 RMK A01 T00721035  RH  047%=      5-min Rain = 0
KBR1 170715Z 30010KT 07/M04 A3008 RMK A01 T00721035  RH  047%=      5-min Rain = 0
KBR1 170716Z 30011KT 07/M04 A3008 RMK A01 T00711035  RH  047%=      5-min Rain = 0
KBR1 170717Z 30011KT 07/M04 A3008 RMK A01 T00711035  RH  047%=      5-min Rain = 0
KBR1 170718Z 30011KT 07/M04 A3008 RMK A01 T00711035  RH  047%=      5-min Rain = 0
KBR1 170719Z 31010KT 07/M04 A3008 RMK A01 T00711035  RH  047%=      5-min Rain = 0
KBR1 170720Z 31010KT 07/M04 A3008 RMK A01 T00701035  RH  047%=      5-min Rain = 0
KBR1 170721Z 31010KT 07/M04 A3008 RMK A01 T00681035  RH  048%=      5-min Rain = 0
KBR1 170722Z 30009KT 07/M04 A3008 RMK A01 T00681035  RH  048%=      5-min Rain = 0
KBR1 170723Z 30010KT 07/M04 A3008 RMK A01 T00681035  RH  048%=      5-min Rain = 0
KBR1 170724Z 30009KT 07/M04 A3008 RMK A01 T00681035  RH  048%=      5-min Rain = 0
KBR1 170725Z 30009KT 07/M04 A3008 RMK A01 T00681035  RH  048%=      5-min Rain = 0
KBR1 170726Z 29010KT 07/M04 A3008 RMK A01 T00681035  RH  048%=      5-min Rain = 0
KBR1 170727Z 29011KT 07/M04 A3008 RMK A01 T00691035  RH  048%=      5-min Rain = 0
KBR1 170728Z 29011KT 07/M04 A3008 RMK A01 T00711035  RH  047%=      5-min Rain = 0
KBR1 170729Z 29010KT 07/M04 A3008 RMK A01 T00721035  RH  046%=      5-min Rain = 0
KBR1 170730Z 29010KT 07/M04 A3008 RMK A01 T00731035  RH  046%=      5-min Rain = 0
KBR1 170731Z 29009KT 07/M04 A3008 RMK A01 T00731035  RH  046%=      5-min Rain = 0
KBR1 170732Z 30010KT 07/M04 A3009 RMK A01 T00721035  RH  046%=      5-min Rain = 0
KBR1 170733Z 29010KT 07/M04 A3009 RMK A01 T00721035  RH  046%=      5-min Rain = 0
KBR1 170734Z 29009KT 07/M04 A3009 RMK A01 T00731035  RH  046%=      5-min Rain = 0
KBR1 170735Z 29010KT 07/M04 A3009 RMK A01 T00721035  RH  046%=      5-min Rain = 0
KBR1 170736Z 29009KT 07/M04 A3009 RMK A01 T00711035  RH  047%=      5-min Rain = 0
KBR1 170737Z 29009KT 07/M04 A3009 RMK A01 T00711035  RH  047%=      5-min Rain = 0
KBR1 170738Z 30011KT 07/M04 A3009 RMK A01 T00711035  RH  047%=      5-min Rain = 0
KBR1 170739Z 29010KT 07/M04 A3009 RMK A01 T00711035  RH  047%=      5-min Rain = 0
KBR1 170740Z 29012KT 07/M04 A3009 RMK A01 T00711035  RH  047%=      5-min Rain = 0
KBR1 170741Z 30011KT 07/M04 A3009 RMK A01 T00711035  RH  047%=      5-min Rain = 0
KBR1 170742Z 30011KT 07/M03 A3009 RMK A01 T00711034  RH  047%=      5-min Rain = 0
KBR1 170743Z 29012KT 07/M03 A3009 RMK A01 T00701034  RH  047%=      5-min Rain = 0
KBR1 170744Z 29011KT 07/M04 A3009 RMK A01 T00691035  RH  048%=      5-min Rain = 0
KBR1 170745Z 29011KT 07/M03 A3009 RMK A01 T00691034  RH  048%=      5-min Rain = 0
KBR1 170746Z 29011KT 07/M03 A3009 RMK A01 T00691034  RH  048%=      5-min Rain = 0
KBR1 170747Z 30010KT 07/M03 A3009 RMK A01 T00681034  RH  048%=      5-min Rain = 0
KBR1 170748Z 30010KT 07/M04 A3009 RMK A01 T00671035  RH  048%=      5-min Rain = 0
KBR1 170749Z 30011KT 07/M04 A3009 RMK A01 T00671035  RH  048%=      5-min Rain = 0
KBR1 170750Z 30010KT 07/M04 A3009 RMK A01 T00671035  RH  048%=      5-min Rain = 0
KBR1 170751Z 30011KT 07/M04 A3009 RMK A01 T00671035  RH  048%=      5-min Rain = 0
KBR1 170752Z 30010KT 07/M04 A3009 RMK A01 T00671035  RH  048%=      5-min Rain = 0
KBR1 170753Z 31010KT 07/M04 A3009 RMK A01 T00651035  RH  049%=      5-min Rain = 0
KBR1 170754Z 31010KT 06/M03 A3009 RMK A01 T00641034  RH  049%=      5-min Rain = 0
KBR1 170755Z 31010KT 06/M03 A3009 RMK A01 T00641034  RH  050%=      5-min Rain = 0
KBR1 170756Z 31010KT 06/M03 A3009 RMK A01 T00631034  RH  050%=      5-min Rain = 0
KBR1 170757Z 31010KT 06/M03 A3009 RMK A01 T00631034  RH  050%=      5-min Rain = 0
KBR1 170758Z 31010KT 06/M04 A3009 RMK A01 T00621035  RH  050%=      5-min Rain = 0
KBR1 170759Z 31009KT 06/M04 A3009 RMK A01 T00621035  RH  050%=      5-min Rain = 0
KBR1 170800Z 32008KT 06/M04 A3009 RMK A01 T00621035  RH  050%=      5-min Rain = 0
KBR1 170801Z 32010KT 06/M04 A301 RMK A01 T00601035  RH  050%=      5-min Rain = 0
KBR1 170802Z 32009KT 06/M04 A3009 RMK A01 T00591035  RH  051%=      5-min Rain = 0
KBR1 170803Z 32009KT 06/M04 A3009 RMK A01 T00591035  RH  051%=      5-min Rain = 0
KBR1 170804Z 31008KT 06/M04 A301 RMK A01 T00591035  RH  051%=      5-min Rain = 0
KBR1 170805Z 31009KT 06/M04 A301 RMK A01 T00581035  RH  051%=      5-min Rain = 0
KBR1 170806Z 31009KT 06/M04 A301 RMK A01 T00581035  RH  051%=      5-min Rain = 0
KBR1 170807Z 31008KT 06/M04 A301 RMK A01 T00581035  RH  051%=      5-min Rain = 0
KBR1 170808Z 30007KT 06/M04 A301 RMK A01 T00561035  RH  052%=      5-min Rain = 0
KBR1 170809Z 30008KT 06/M04 A301 RMK A01 T00551035  RH  052%=      5-min Rain = 0
KBR1 170810Z 30007KT 06/M04 A301 RMK A01 T00551035  RH  052%=      5-min Rain = 0
KBR1 170811Z 30007KT 06/M04 A301 RMK A01 T00551035  RH  052%=      5-min Rain = 0
KBR1 170812Z 30007KT 06/M04 A301 RMK A01 T00551035  RH  052%=      5-min Rain = 0
KBR1 170813Z 30007KT 05/M04 A301 RMK A01 T00541035  RH  052%=      5-min Rain = 0
KBR1 170814Z 30008KT 05/M04 A301 RMK A01 T00541035  RH  053%=      5-min Rain = 0
KBR1 170815Z 30007KT 05/M04 A301 RMK A01 T00541035  RH  053%=      5-min Rain = 0
KBR1 170816Z 31008KT 05/M04 A301 RMK A01 T00531035  RH  053%=      5-min Rain = 0
KBR1 170817Z 31009KT 05/M04 A301 RMK A01 T00521035  RH  053%=      5-min Rain = 0
KBR1 170818Z 31009KT 05/M04 A301 RMK A01 T00521035  RH  054%=      5-min Rain = 0
KBR1 170819Z 31009KT 05/M04 A301 RMK A01 T00521035  RH  054%=      5-min Rain = 0
KBR1 170820Z 30008KT 05/M04 A301 RMK A01 T00511035  RH  054%=      5-min Rain = 0
KBR1 170821Z 31008KT 05/M04 A301 RMK A01 T00501035  RH  054%=      5-min Rain = 0
KBR1 170822Z 30008KT 05/M04 A301 RMK A01 T00491035  RH  055%=      5-min Rain = 0
KBR1 170823Z 29007KT 05/M04 A301 RMK A01 T00481035  RH  055%=      5-min Rain = 0
KBR1 170824Z 29007KT 05/M04 A301 RMK A01 T00471035  RH  055%=      5-min Rain = 0
KBR1 170825Z 29007KT 05/M04 A301 RMK A01 T00471035  RH  055%=      5-min Rain = 0
KBR1 170826Z 29008KT 05/M04 A301 RMK A01 T00461035  RH  056%=      5-min Rain = 0
KBR1 170827Z 29008KT 05/M04 A301 RMK A01 T00461035  RH  056%=      5-min Rain = 0
KBR1 170828Z 29008KT 05/M04 A301 RMK A01 T00471035  RH  055%=      5-min Rain = 0
KBR1 170829Z 29008KT 05/M04 A301 RMK A01 T00471035  RH  055%=      5-min Rain = 0
KBR1 170830Z 30007KT 05/M04 A301 RMK A01 T00481035  RH  055%=      5-min Rain = 0
KBR1 170831Z 30007KT 05/M04 A301 RMK A01 T00481035  RH  055%=      5-min Rain = 0
KBR1 170832Z 30007KT 05/M04 A3011 RMK A01 T00481035  RH  055%=      5-min Rain = 0
KBR1 170833Z 30007KT 05/M04 A3011 RMK A01 T00471036  RH  055%=      5-min Rain = 0
KBR1 170834Z 31007KT 05/M04 A3011 RMK A01 T00461035  RH  055%=      5-min Rain = 0
KBR1 170835Z 31006KT 05/M04 A3011 RMK A01 T00471035  RH  055%=      5-min Rain = 0
KBR1 170836Z 31005KT 05/M04 A3011 RMK A01 T00471035  RH  055%=      5-min Rain = 0
KBR1 170837Z 31005KT 05/M04 A3011 RMK A01 T00471035  RH  055%=      5-min Rain = 0
KBR1 170838Z 31005KT 05/M04 A3011 RMK A01 T00471036  RH  055%=      5-min Rain = 0
KBR1 170839Z 30004KT 05/M04 A3011 RMK A01 T00461036  RH  055%=      5-min Rain = 0
KBR1 170840Z 32004KT 05/M04 A3011 RMK A01 T00461036  RH  055%=      5-min Rain = 0
KBR1 170841Z 33003KT 05/M04 A3011 RMK A01 T00461036  RH  055%=      5-min Rain = 0
KBR1 170842Z 34003KT 05/M04 A3011 RMK A01 T00451036  RH  056%=      5-min Rain = 0
KBR1 170843Z 36003KT 04/M04 A3011 RMK A01 T00441036  RH  056%=      5-min Rain = 0
KBR1 170844Z 01003KT 04/M04 A3011 RMK A01 T00421037  RH  056%=      5-min Rain = 0
KBR1 170845Z 03004KT 04/M04 A3011 RMK A01 T00401039  RH  056%=      5-min Rain = 0
KBR1 170846Z 05005KT 04/M04 A3011 RMK A01 T00381040  RH  057%=      5-min Rain = 0
KBR1 170847Z 05006KT 03/M04 A3011 RMK A01 T00331043  RH  057%=      5-min Rain = 0
KBR1 170848Z 04008KT 03/M05 A3012 RMK A01 T00251046  RH  059%=      5-min Rain = 0
KBR1 170849Z 04007KT 02/M05 A3012 RMK A01 T00201046  RH  062%=      5-min Rain = 0
KBR1 170850Z 04005KT 02/M04 A3012 RMK A01 T00201044  RH  063%=      5-min Rain = 0
KBR1 170851Z 04004KT 02/M04 A3012 RMK A01 T00201042  RH  063%=      5-min Rain = 0
KBR1 170852Z 33003KT 02/M04 A3012 RMK A01 T00211042  RH  063%=      5-min Rain = 0
KBR1 170853Z 33004KT 02/M04 A3011 RMK A01 T00221040  RH  063%=      5-min Rain = 0
KBR1 170854Z 31004KT 02/M04 A3011 RMK A01 T00241040  RH  063%=      5-min Rain = 0
KBR1 170855Z 29005KT 02/M04 A3011 RMK A01 T00241041  RH  062%=      5-min Rain = 0
KBR1 170856Z 30006KT 02/M04 A3011 RMK A01 T00241041  RH  063%=      5-min Rain = 0
KBR1 170857Z 30008G15KT 03/M04 A3011 RMK A01 T00281038  RH  062%=      5-min Rain = 0
KBR1 170858Z 29013KT 04/M03 A3011 RMK A01 T00401032  RH  059%=      5-min Rain = 0
KBR1 170859Z 30011KT 06/M03 A3011 RMK A01 T00551031  RH  054%=      5-min Rain = 0
KBR1 170900Z 30009KT 06/M03 A3011 RMK A01 T00631033  RH  050%=      5-min Rain = 0
KBR1 170901Z 31008KT 06/M03 A3011 RMK A01 T00641034  RH  049%=      5-min Rain = 0
KBR1 170902Z 35007KT 06/M04 A3012 RMK A01 T00611035  RH  050%=      5-min Rain = 0
KBR1 170903Z 02010KT 06/M04 A3012 RMK A01 T00561036  RH  051%=      5-min Rain = 0
KBR1 170904Z 04010KT 05/M04 A3012 RMK A01 T00521037  RH  053%=      5-min Rain = 0
KBR1 170905Z 03010KT 05/M04 A3012 RMK A01 T00471037  RH  055%=      5-min Rain = 0
KBR1 170906Z 02010KT 04/M04 A3012 RMK A01 T00431037  RH  056%=      5-min Rain = 0
KBR1 170907Z 01009KT 04/M04 A3012 RMK A01 T00411037  RH  057%=      5-min Rain = 0
KBR1 170908Z 36009KT 04/M04 A3012 RMK A01 T00411037  RH  057%=      5-min Rain = 0
KBR1 170909Z 35010KT 04/M04 A3012 RMK A01 T00411036  RH  057%=      5-min Rain = 0
KBR1 170910Z 36009KT 04/M04 A3012 RMK A01 T00411036  RH  057%=      5-min Rain = 0
KBR1 170911Z 00009KT 04/M04 A3012 RMK A01 T00421036  RH  057%=      5-min Rain = 0
KBR1 170912Z 00009KT 04/M04 A3012 RMK A01 T00411036  RH  057%=      5-min Rain = 0
KBR1 170913Z 01009KT 04/M04 A3012 RMK A01 T00391037  RH  058%=      5-min Rain = 0
KBR1 170914Z 01009KT 04/M04 A3012 RMK A01 T00371037  RH  058%=      5-min Rain = 0
KBR1 170915Z 01011KT 04/M04 A3012 RMK A01 T00351038  RH  059%=      5-min Rain = 0
KBR1 170916Z 00011KT 04/M04 A3012 RMK A01 T00351038  RH  059%=      5-min Rain = 0
KBR1 170917Z 36012KT 04/M04 A3012 RMK A01 T00351038  RH  059%=      5-min Rain = 0
KBR1 170918Z 35011KT 04/M04 A3012 RMK A01 T00371037  RH  059%=      5-min Rain = 0
KBR1 170919Z 34016KT 04/M04 A3012 RMK A01 T00431035  RH  057%=      5-min Rain = 0
KBR1 170920Z 34017KT 05/M03 A3012 RMK A01 T00541034  RH  053%=      5-min Rain = 0
KBR1 170921Z 35016KT 06/M03 A3012 RMK A01 T00621034  RH  050%=      5-min Rain = 0
KBR1 170922Z 02012KT 06/M04 A3012 RMK A01 T00611037  RH  049%=      5-min Rain = 0
KBR1 170923Z 02013KT 05/M04 A3012 RMK A01 T00531039  RH  051%=      5-min Rain = 0
KBR1 170924Z 01014KT 05/M04 A3012 RMK A01 T00481039  RH  053%=      5-min Rain = 0
KBR1 170925Z 02012KT 05/M04 A3012 RMK A01 T00461039  RH  054%=      5-min Rain = 0
KBR1 170926Z 02011KT 04/M04 A3012 RMK A01 T00431039  RH  055%=      5-min Rain = 0
KBR1 170927Z 01008KT 04/M04 A3012 RMK A01 T00391040  RH  056%=      5-min Rain = 0
KBR1 170928Z 36010KT 04/M04 A3012 RMK A01 T00381039  RH  057%=      5-min Rain = 0
KBR1 170929Z 33009KT 04/M04 A3012 RMK A01 T00411038  RH  056%=      5-min Rain = 0
KBR1 170930Z 00009KT 05/M04 A3012 RMK A01 T00491037  RH  054%=      5-min Rain = 0
KBR1 170931Z 00009KT 04/M04 A3012 RMK A01 T00441040  RH  054%=      5-min Rain = 0
KBR1 170932Z 01008KT 04/M04 A3012 RMK A01 T00381041  RH  057%=      5-min Rain = 0
KBR1 170933Z 01007KT 03/M04 A3012 RMK A01 T00331041  RH  058%=      5-min Rain = 0
KBR1 170934Z 02008KT 03/M04 A3012 RMK A01 T00321041  RH  059%=      5-min Rain = 0
KBR1 170935Z 02009KT 03/M04 A3012 RMK A01 T00301040  RH  060%=      5-min Rain = 0
KBR1 170936Z 02009KT 03/M04 A3012 RMK A01 T00281041  RH  060%=      5-min Rain = 0
KBR1 170937Z 02010KT 03/M04 A3012 RMK A01 T00261042  RH  061%=      5-min Rain = 0
KBR1 170938Z 02010KT 03/M04 A3012 RMK A01 T00251041  RH  062%=      5-min Rain = 0
KBR1 170939Z 03011KT 03/M04 A3012 RMK A01 T00251041  RH  062%=      5-min Rain = 0
KBR1 170940Z 02010KT 03/M04 A3012 RMK A01 T00251040  RH  062%=      5-min Rain = 0
KBR1 170941Z 01009KT 03/M04 A3012 RMK A01 T00251040  RH  062%=      5-min Rain = 0
KBR1 170942Z 01008KT 02/M04 A3013 RMK A01 T00241041  RH  062%=      5-min Rain = 0
KBR1 170943Z 00008KT 02/M04 A3013 RMK A01 T00241041  RH  062%=      5-min Rain = 0
KBR1 170944Z 00008KT 02/M04 A3013 RMK A01 T00231041  RH  063%=      5-min Rain = 0
KBR1 170945Z 35008KT 02/M04 A3013 RMK A01 T00221041  RH  063%=      5-min Rain = 0
KBR1 170946Z 36009KT 02/M04 A3013 RMK A01 T00221041  RH  063%=      5-min Rain = 0
KBR1 170947Z 35008KT 02/M04 A3013 RMK A01 T00221042  RH  063%=      5-min Rain = 0
KBR1 170948Z 35008KT 02/M04 A3013 RMK A01 T00211042  RH  063%=      5-min Rain = 0
KBR1 170949Z 35008KT 02/M04 A3013 RMK A01 T00211042  RH  063%=      5-min Rain = 0
KBR1 170950Z 35008KT 02/M04 A3013 RMK A01 T00201042  RH  064%=      5-min Rain = 0
KBR1 170951Z 34009KT 02/M04 A3013 RMK A01 T00191042  RH  064%=      5-min Rain = 0
KBR1 170952Z 34009KT 02/M04 A3013 RMK A01 T00201042  RH  064%=      5-min Rain = 0
KBR1 170953Z 34009KT 02/M04 A3013 RMK A01 T00221041  RH  063%=      5-min Rain = 0
KBR1 170954Z 34008KT 02/M04 A3013 RMK A01 T00231040  RH  063%=      5-min Rain = 0
KBR1 170955Z 34008KT 02/M04 A3012 RMK A01 T00241040  RH  063%=      5-min Rain = 0
KBR1 170956Z 34009KT 03/M04 A3013 RMK A01 T00251039  RH  062%=      5-min Rain = 0
KBR1 170957Z 34008KT 03/M04 A3013 RMK A01 T00271039  RH  062%=      5-min Rain = 0
KBR1 170958Z 33008KT 03/M04 A3013 RMK A01 T00291039  RH  061%=      5-min Rain = 0
KBR1 170959Z 34009KT 03/M04 A3013 RMK A01 T00301039  RH  061%=      5-min Rain = 0
KBR1 171000Z 33008KT 03/M04 A3013 RMK A01 T00311039  RH  060%=      5-min Rain = 0
KBR1 171001Z 33008KT 03/M04 A3013 RMK A01 T00321039  RH  060%=      5-min Rain = 0
KBR1 171002Z 33008KT 03/M04 A3013 RMK A01 T00321039  RH  060%=      5-min Rain = 0
KBR1 171003Z 34008KT 03/M04 A3013 RMK A01 T00321039  RH  060%=      5-min Rain = 0
KBR1 171004Z 34009KT 03/M04 A3013 RMK A01 T00321039  RH  060%=      5-min Rain = 0
KBR1 171005Z 35009KT 03/M04 A3013 RMK A01 T00311039  RH  060%=      5-min Rain = 0
KBR1 171006Z 35009KT 03/M04 A3013 RMK A01 T00321038  RH  060%=      5-min Rain = 0
KBR1 171007Z 36008KT 03/M04 A3013 RMK A01 T00331037  RH  060%=      5-min Rain = 0
KBR1 171008Z 02006KT 03/M04 A3013 RMK A01 T00331037  RH  060%=      5-min Rain = 0
KBR1 171009Z 02007KT 03/M04 A3013 RMK A01 T00301040  RH  060%=      5-min Rain = 0
KBR1 171010Z 01006KT 03/M04 A3013 RMK A01 T00261042  RH  061%=      5-min Rain = 0
KBR1 171011Z 01007KT 02/M04 A3013 RMK A01 T00231043  RH  062%=      5-min Rain = 0
KBR1 171012Z 00008KT 02/M04 A3013 RMK A01 T00211042  RH  063%=      5-min Rain = 0
KBR1 171013Z 36008KT 02/M04 A3013 RMK A01 T00211041  RH  064%=      5-min Rain = 0
KBR1 171014Z 35008KT 02/M04 A3013 RMK A01 T00221040  RH  064%=      5-min Rain = 0
KBR1 171015Z 35008KT 02/M04 A3013 RMK A01 T00241039  RH  063%=      5-min Rain = 0
KBR1 171016Z 34008KT 03/M04 A3013 RMK A01 T00251038  RH  063%=      5-min Rain = 0
KBR1 171017Z 34008KT 03/M04 A3013 RMK A01 T00261038  RH  062%=      5-min Rain = 0
KBR1 171018Z 34009KT 03/M04 A3013 RMK A01 T00271038  RH  062%=      5-min Rain = 0
KBR1 171019Z 34008KT 03/M04 A3013 RMK A01 T00291038  RH  061%=      5-min Rain = 0
KBR1 171020Z 33008KT 03/M04 A3013 RMK A01 T00311037  RH  061%=      5-min Rain = 0
KBR1 171021Z 33008KT 03/M04 A3013 RMK A01 T00321038  RH  060%=      5-min Rain = 0
KBR1 171022Z 33008KT 03/M04 A3013 RMK A01 T00331038  RH  060%=      5-min Rain = 0
KBR1 171023Z 33008KT 03/M04 A3013 RMK A01 T00331037  RH  060%=      5-min Rain = 0
KBR1 171024Z 34008KT 03/M04 A3013 RMK A01 T00341038  RH  060%=      5-min Rain = 0
KBR1 171025Z 34008KT 03/M04 A3013 RMK A01 T00341037  RH  060%=      5-min Rain = 0
KBR1 171026Z 34007KT 03/M04 A3013 RMK A01 T00341037  RH  060%=      5-min Rain = 0
KBR1 171027Z 34008KT 03/M04 A3013 RMK A01 T00341037  RH  060%=      5-min Rain = 0
KBR1 171028Z 35008KT 04/M04 A3013 RMK A01 T00351036  RH  060%=      5-min Rain = 0
KBR1 171029Z 35008KT 03/M04 A3013 RMK A01 T00341035  RH  060%=      5-min Rain = 0
KBR1 171030Z 35009KT 03/M04 A3013 RMK A01 T00331035  RH  061%=      5-min Rain = 0
KBR1 171031Z 35009KT 03/M04 A3013 RMK A01 T00331035  RH  061%=      5-min Rain = 0
KBR1 171032Z 36009KT 03/M04 A3013 RMK A01 T00341035  RH  060%=      5-min Rain = 0
KBR1 171033Z 00009KT 04/M04 A3013 RMK A01 T00351035  RH  060%=      5-min Rain = 0
KBR1 171034Z 00008KT 04/M04 A3013 RMK A01 T00351035  RH  060%=      5-min Rain = 0
KBR1 171035Z 36008KT 04/M04 A3013 RMK A01 T00351035  RH  060%=      5-min Rain = 0
KBR1 171036Z 35009KT 03/M04 A3013 RMK A01 T00341036  RH  060%=      5-min Rain = 0
KBR1 171037Z 35009KT 03/M04 A3013 RMK A01 T00341036  RH  060%=      5-min Rain = 0
KBR1 171038Z 34008KT 03/M04 A3012 RMK A01 T00341036  RH  060%=      5-min Rain = 0
KBR1 171039Z 34008KT 04/M04 A3012 RMK A01 T00351036  RH  060%=      5-min Rain = 0
KBR1 171040Z 34008KT 04/M04 A3012 RMK A01 T00351036  RH  060%=      5-min Rain = 0
KBR1 171041Z 33008KT 04/M04 A3012 RMK A01 T00351036  RH  059%=      5-min Rain = 0
KBR1 171042Z 33008KT 04/M04 A3012 RMK A01 T00361036  RH  059%=      5-min Rain = 0
KBR1 171043Z 33008KT 04/M04 A3012 RMK A01 T00361036  RH  059%=      5-min Rain = 0
KBR1 171044Z 33007KT 04/M04 A3012 RMK A01 T00361036  RH  059%=      5-min Rain = 0
KBR1 171045Z 31005KT 04/M04 A3013 RMK A01 T00351036  RH  060%=      5-min Rain = 0
KBR1 171046Z 21006KT 03/M04 A3013 RMK A01 T00331037  RH  060%=      5-min Rain = 0
KBR1 171047Z 18009KT 03/M04 A3013 RMK A01 T00281041  RH  061%=      5-min Rain = 0
KBR1 171048Z 18010KT 02/M04 A3013 RMK A01 T00221042  RH  063%=      5-min Rain = 0
KBR1 171049Z 19005KT 02/M04 A3013 RMK A01 T00211040  RH  064%=      5-min Rain = 0
KBR1 171050Z 25003KT 02/M04 A3013 RMK A01 T00221039  RH  064%=      5-min Rain = 0
KBR1 171051Z 26002KT 02/M04 A3013 RMK A01 T00221039  RH  064%=      5-min Rain = 0
KBR1 171052Z 23003KT 02/M04 A3013 RMK A01 T00221039  RH  064%=      5-min Rain = 0
KBR1 171053Z 24004KT 02/M04 A3013 RMK A01 T00241039  RH  063%=      5-min Rain = 0
KBR1 171054Z 25003KT 03/M04 A3013 RMK A01 T00251039  RH  063%=      5-min Rain = 0
KBR1 171055Z 25003KT 03/M04 A3013 RMK A01 T00251039  RH  063%=      5-min Rain = 0
KBR1 171056Z 26003KT 03/M04 A3013 RMK A01 T00261039  RH  062%=      5-min Rain = 0
KBR1 171057Z 25002KT 03/M04 A3013 RMK A01 T00271039  RH  062%=      5-min Rain = 0
KBR1 171058Z 22003KT 03/M04 A3013 RMK A01 T00291039  RH  061%=      5-min Rain = 0
KBR1 171059Z 20004KT 03/M04 A3013 RMK A01 T00281040  RH  061%=      5-min Rain = 0
KBR1 171100Z 19004KT 02/M04 A3013 RMK A01 T00231042  RH  062%=      5-min Rain = 0
KBR1 171101Z 19004KT 02/M04 A3013 RMK A01 T00211042  RH  063%=      5-min Rain = 0
KBR1 171102Z 18004KT 02/M04 A3013 RMK A01 T00221040  RH  064%=      5-min Rain = 0
KBR1 171103Z 18004KT 02/M04 A3013 RMK A01 T00231040  RH  063%=      5-min Rain = 0
KBR1 171104Z 18004KT 02/M04 A3013 RMK A01 T00231041  RH  063%=      5-min Rain = 0
KBR1 171105Z 17004KT 02/M04 A3013 RMK A01 T00211042  RH  063%=      5-min Rain = 0
KBR1 171106Z 17005KT 02/M04 A3013 RMK A01 T00201042  RH  063%=      5-min Rain = 0
KBR1 171107Z 17006KT 02/M04 A3013 RMK A01 T00201042  RH  064%=      5-min Rain = 0
KBR1 171108Z 16005KT 02/M04 A3013 RMK A01 T00191041  RH  064%=      5-min Rain = 0
KBR1 171109Z 16004KT 02/M04 A3013 RMK A01 T00191041  RH  064%=      5-min Rain = 0
KBR1 171110Z 15004KT 02/M04 A3013 RMK A01 T00191041  RH  065%=      5-min Rain = 0
KBR1 171111Z 15004KT 02/M04 A3013 RMK A01 T00181042  RH  065%=      5-min Rain = 0
KBR1 171112Z 16004KT 02/M04 A3013 RMK A01 T00161042  RH  065%=      5-min Rain = 0
KBR1 171113Z 15005KT 02/M04 A3013 RMK A01 T00151043  RH  065%=      5-min Rain = 0
KBR1 171114Z 15005KT 01/M04 A3012 RMK A01 T00141043  RH  066%=      5-min Rain = 0
KBR1 171115Z 15006KT 01/M04 A3012 RMK A01 T00141042  RH  066%=      5-min Rain = 0
KBR1 171116Z 15006KT 01/M04 A3012 RMK A01 T00141042  RH  066%=      5-min Rain = 0
KBR1 171117Z 16006KT 01/M04 A3012 RMK A01 T00141042  RH  066%=      5-min Rain = 0
KBR1 171118Z 14006KT 02/M04 A3012 RMK A01 T00171040  RH  066%=      5-min Rain = 0
KBR1 171119Z 15006KT 02/M04 A3012 RMK A01 T00181041  RH  065%=      5-min Rain = 0
KBR1 171120Z 15006KT 02/M04 A3012 RMK A01 T00171042  RH  065%=      5-min Rain = 0
KBR1 171121Z 15005KT 02/M04 A3012 RMK A01 T00171041  RH  065%=      5-min Rain = 0
KBR1 171122Z 16006KT 02/M04 A3012 RMK A01 T00161041  RH  066%=      5-min Rain = 0
KBR1 171123Z 16006KT 01/M04 A3012 RMK A01 T00141043  RH  066%=      5-min Rain = 0
KBR1 171124Z 16006KT 01/M04 A3012 RMK A01 T00131043  RH  066%=      5-min Rain = 0
KBR1 171125Z 17006KT 01/M04 A3012 RMK A01 T00141042  RH  066%=      5-min Rain = 0
KBR1 171126Z 17005KT 02/M04 A3012 RMK A01 T00151043  RH  066%=      5-min Rain = 0
KBR1 171127Z 18005KT 01/M04 A3013 RMK A01 T00141044  RH  066%=      5-min Rain = 0
KBR1 171128Z 18004KT 01/M05 A3013 RMK A01 T00121045  RH  066%=      5-min Rain = 0
KBR1 171129Z 18006KT 01/M05 A3013 RMK A01 T00091046  RH  067%=      5-min Rain = 0
KBR1 171130Z 19005KT 01/M05 A3013 RMK A01 T00071046  RH  068%=      5-min Rain = 0
KBR1 171131Z 22005KT 01/M05 A3013 RMK A01 T00051047  RH  068%=      5-min Rain = 0
KBR1 171132Z 21005KT 00/M05 A3013 RMK A01 T00031046  RH  070%=      5-min Rain = 0
KBR1 171133Z 22005KT 00/M05 A3013 RMK A01 T00021045  RH  070%=      5-min Rain = 0
KBR1 171134Z 22004KT 00/M04 A3013 RMK A01 T00021044  RH  071%=      5-min Rain = 0
KBR1 171135Z 23004KT 00/M04 A3013 RMK A01 T00021044  RH  071%=      5-min Rain = 0
KBR1 171136Z 22004KT 00/M04 A3013 RMK A01 T00021044  RH  071%=      5-min Rain = 0
KBR1 171137Z 23004KT 00/M04 A3013 RMK A01 T00021044  RH  071%=      5-min Rain = 0
KBR1 171138Z 23004KT 00/M04 A3013 RMK A01 T00021043  RH  072%=      5-min Rain = 0
KBR1 171139Z 22004KT 00/M04 A3013 RMK A01 T00021043  RH  071%=      5-min Rain = 0
KBR1 171140Z 22003KT 00/M04 A3013 RMK A01 T00031043  RH  071%=      5-min Rain = 0
KBR1 171141Z 23003KT 00/M04 A3013 RMK A01 T00041043  RH  071%=      5-min Rain = 0
KBR1 171142Z 23003KT 00/M04 A3013 RMK A01 T00041043  RH  071%=      5-min Rain = 0
KBR1 171143Z 23003KT 00/M04 A3013 RMK A01 T00031043  RH  071%=      5-min Rain = 0
KBR1 171144Z 23003KT 00/M04 A3013 RMK A01 T00031043  RH  071%=      5-min Rain = 0
KBR1 171145Z 24003KT 00/M04 A3013 RMK A01 T00021043  RH  071%=      5-min Rain = 0
KBR1 171146Z 25003KT 00/M04 A3013 RMK A01 T00021044  RH  071%=      5-min Rain = 0
KBR1 171147Z 24003KT 00/M04 A3013 RMK A01 T00021044  RH  071%=      5-min Rain = 0
KBR1 171148Z 24002KT 00/M04 A3013 RMK A01 T00021044  RH  072%=      5-min Rain = 0
KBR1 171149Z 22001KT 00/M04 A3013 RMK A01 T00021044  RH  071%=      5-min Rain = 0
KBR1 171150Z 22001KT 00/M04 A3013 RMK A01 T00021044  RH  071%=      5-min Rain = 0
KBR1 171151Z 23001KT 00/M04 A3013 RMK A01 T00021044  RH  071%=      5-min Rain = 0
KBR1 171152Z 00000KT M00/M05 A3013 RMK A01 T10031048  RH  071%=      5-min Rain = 0
KBR1 171153Z 05000KT M01/M05 A3013 RMK A01 T10051048  RH  073%=      5-min Rain = 0
KBR1 171154Z 05001KT M01/M05 A3013 RMK A01 T10071049  RH  074%=      5-min Rain = 0
KBR1 171155Z 05002KT M01/M05 A3013 RMK A01 T10091049  RH  074%=      5-min Rain = 0
KBR1 171156Z 04003KT M01/M05 A3013 RMK A01 T10101049  RH  075%=      5-min Rain = 0
KBR1 171157Z 04003KT M01/M05 A3013 RMK A01 T10111049  RH  075%=      5-min Rain = 0
KBR1 171158Z 04003KT M01/M05 A3013 RMK A01 T10131050  RH  076%=      5-min Rain = 0
KBR1 171159Z 04003KT M02/M05 A3013 RMK A01 T10161052  RH  076%=      5-min Rain = 0
KBR1 171200Z 05002KT M02/M05 A3013 RMK A01 T10171051  RH  077%=      5-min Rain = 0
KBR1 171201Z 07002KT M02/M05 A3013 RMK A01 T10171051  RH  078%=      5-min Rain = 0
KBR1 171202Z 08002KT M02/M05 A3013 RMK A01 T10171050  RH  078%=      5-min Rain = 0
KBR1 171203Z 07001KT M01/M04 A3013 RMK A01 T10101043  RH  079%=      5-min Rain = 0
KBR1 171204Z 06002KT M00/M04 A3013 RMK A01 T10011037  RH  076%=      5-min Rain = 0
KBR1 171205Z 05002KT 00/M04 A3013 RMK A01 T00031041  RH  072%=      5-min Rain = 0
KBR1 171206Z 07001KT M00/M05 A3013 RMK A01 T10011047  RH  071%=      5-min Rain = 0
KBR1 171207Z 14000KT M00/M05 A3013 RMK A01 T10041046  RH  073%=      5-min Rain = 0
KBR1 171208Z 00002KT M00/M04 A3013 RMK A01 T10011044  RH  073%=      5-min Rain = 0
KBR1 171209Z 34001KT M01/M05 A3013 RMK A01 T10071052  RH  072%=      5-min Rain = 0
KBR1 171210Z 01000KT M01/M05 A3013 RMK A01 T10131054  RH  074%=      5-min Rain = 0
KBR1 171211Z 01001KT M02/M05 A3013 RMK A01 T10151052  RH  076%=      5-min Rain = 0
KBR1 171212Z 32001KT M02/M05 A3013 RMK A01 T10151051  RH  077%=      5-min Rain = 0
KBR1 171213Z 35002KT M01/M05 A3013 RMK A01 T10141050  RH  076%=      5-min Rain = 0
KBR1 171214Z 35001KT M01/M05 A3013 RMK A01 T10141051  RH  076%=      5-min Rain = 0
KBR1 171215Z 35001KT M02/M05 A3013 RMK A01 T10161052  RH  076%=      5-min Rain = 0
KBR1 171216Z 33001KT M02/M05 A3013 RMK A01 T10161051  RH  077%=      5-min Rain = 0
KBR1 171217Z 00002KT M02/M05 A3013 RMK A01 T10161049  RH  078%=      5-min Rain = 0
KBR1 171218Z 01003KT M01/M05 A3013 RMK A01 T10131046  RH  078%=      5-min Rain = 0
KBR1 171219Z 02003KT M01/M05 A3013 RMK A01 T10111047  RH  077%=      5-min Rain = 0
KBR1 171220Z 02004KT M01/M05 A3013 RMK A01 T10111047  RH  077%=      5-min Rain = 0
KBR1 171221Z 01004KT M01/M05 A3013 RMK A01 T10101047  RH  076%=      5-min Rain = 0
KBR1 171222Z 00006KT M01/M05 A3013 RMK A01 T10101048  RH  076%=      5-min Rain = 0
KBR1 171223Z 01005KT M01/M05 A3013 RMK A01 T10111048  RH  076%=      5-min Rain = 0
KBR1 171224Z 01006KT M01/M05 A3013 RMK A01 T10121048  RH  077%=      5-min Rain = 0
KBR1 171225Z 01006KT M01/M05 A3013 RMK A01 T10121047  RH  077%=      5-min Rain = 0
KBR1 171226Z 02005KT M01/M05 A3013 RMK A01 T10111046  RH  077%=      5-min Rain = 0
KBR1 171227Z 02004KT M01/M04 A3013 RMK A01 T10091043  RH  078%=      5-min Rain = 0
KBR1 171228Z 01005KT M01/M04 A3013 RMK A01 T10071042  RH  077%=      5-min Rain = 0
KBR1 171229Z 01003KT M00/M04 A3013 RMK A01 T10021038  RH  076%=      5-min Rain = 0
KBR1 171230Z 02004KT 00/M04 A3013 RMK A01 T00031038  RH  074%=      5-min Rain = 0
KBR1 171231Z 03004KT 00/M04 A3013 RMK A01 T00041039  RH  073%=      5-min Rain = 0
KBR1 171232Z 05004KT 00/M04 A3013 RMK A01 T00031041  RH  073%=      5-min Rain = 0
KBR1 171233Z 04003KT 00/04 A3012 RMK A01 T00000-41  RH  074%=      5-min Rain = 0
KBR1 171234Z 03003KT 00/M04 A3013 RMK A01 T00021038  RH  075%=      5-min Rain = 0
KBR1 171235Z 03002KT 01/M04 A3013 RMK A01 T00071035  RH  074%=      5-min Rain = 0
KBR1 171236Z 02002KT 01/M04 A3013 RMK A01 T00091035  RH  072%=      5-min Rain = 0
KBR1 171237Z 01002KT 01/M04 A3013 RMK A01 T00111036  RH  071%=      5-min Rain = 0
KBR1 171238Z 00002KT 01/M04 A3013 RMK A01 T00111038  RH  070%=      5-min Rain = 0
KBR1 171239Z 00001KT 02/M03 A3013 RMK A01 T00181033  RH  069%=      5-min Rain = 0
KBR1 171240Z 00000KT 03/M03 A3013 RMK A01 T00261031  RH  066%=      5-min Rain = 0
KBR1 171241Z 00000KT 03/M03 A3013 RMK A01 T00311032  RH  063%=      5-min Rain = 0
KBR1 171242Z 15000KT 03/M03 A3013 RMK A01 T00331034  RH  062%=      5-min Rain = 0
KBR1 171243Z 15001KT 04/M03 A3013 RMK A01 T00361034  RH  060%=      5-min Rain = 0
KBR1 171244Z 14000KT 04/M03 A3013 RMK A01 T00411033  RH  059%=      5-min Rain = 0
KBR1 171245Z 13000KT 05/M03 A3013 RMK A01 T00461033  RH  057%=      5-min Rain = 0
KBR1 171246Z 07000KT 05/M04 A3013 RMK A01 T00471035  RH  055%=      5-min Rain = 0
KBR1 171247Z 06001KT 05/M04 A3013 RMK A01 T00481035  RH  055%=      5-min Rain = 0
KBR1 171248Z 06001KT 05/M04 A3013 RMK A01 T00481036  RH  055%=      5-min Rain = 0
KBR1 171249Z 02001KT 05/M04 A3013 RMK A01 T00481036  RH  054%=      5-min Rain = 0
KBR1 171250Z 01002KT 05/M04 A3013 RMK A01 T00491036  RH  054%=      5-min Rain = 0
KBR1 171251Z 34001KT 05/M04 A3013 RMK A01 T00491037  RH  054%=      5-min Rain = 0
KBR1 171252Z 34002KT 05/M04 A3013 RMK A01 T00491037  RH  054%=      5-min Rain = 0
KBR1 171253Z 33002KT 05/M04 A3013 RMK A01 T00471038  RH  054%=      5-min Rain = 0
KBR1 171254Z 33002KT 05/M04 A3013 RMK A01 T00461039  RH  054%=      5-min Rain = 0
KBR1 171255Z 33003KT 05/M04 A3013 RMK A01 T00471038  RH  054%=      5-min Rain = 0
KBR1 171256Z 34003KT 05/M04 A3013 RMK A01 T00491039  RH  053%=      5-min Rain = 0
KBR1 171257Z 34003KT 05/M04 A3013 RMK A01 T00481039  RH  053%=      5-min Rain = 0
KBR1 171258Z 35003KT 05/M04 A3013 RMK A01 T00451040  RH  054%=      5-min Rain = 0
KBR1 171259Z 34003KT 04/M04 A3012 RMK A01 T00431040  RH  055%=      5-min Rain = 0
KBR1 171300Z 35003KT 04/M04 A3012 RMK A01 T00391041  RH  056%=      5-min Rain = 0
KBR1 171301Z 35004KT 04/M04 A3012 RMK A01 T00371041  RH  057%=      5-min Rain = 0
KBR1 171302Z 33004KT 04/M04 A3012 RMK A01 T00351041  RH  057%=      5-min Rain = 0
KBR1 171303Z 33003KT 03/M04 A3012 RMK A01 T00341041  RH  058%=      5-min Rain = 0
KBR1 171304Z 34003KT 03/M04 A3012 RMK A01 T00341041  RH  058%=      5-min Rain = 0
KBR1 171305Z 35002KT 04/M04 A3012 RMK A01 T00351040  RH  058%=      5-min Rain = 0
KBR1 171306Z 01001KT 04/M04 A3012 RMK A01 T00361041  RH  057%=      5-min Rain = 0
KBR1 171307Z 13003G8KT 03/M04 A3012 RMK A01 T00321044  RH  057%=      5-min Rain = 0
KBR1 171308Z 15009KT 02/M05 A3012 RMK A01 T00231046  RH  060%=      5-min Rain = 0
KBR1 171309Z 16009KT 02/M05 A3012 RMK A01 T00151046  RH  064%=      5-min Rain = 0
KBR1 171310Z 16008KT 01/M04 A3012 RMK A01 T00101044  RH  067%=      5-min Rain = 0
KBR1 171311Z 16008KT 01/M04 A3013 RMK A01 T00101042  RH  068%=      5-min Rain = 0
KBR1 171312Z 16006KT 01/M04 A3013 RMK A01 T00121039  RH  069%=      5-min Rain = 0
KBR1 171313Z 18005KT 01/M04 A3013 RMK A01 T00131039  RH  068%=      5-min Rain = 0
KBR1 171314Z 18004KT 02/M04 A3013 RMK A01 T00151039  RH  067%=      5-min Rain = 0
KBR1 171315Z 18003KT 01/M04 A3013 RMK A01 T00141040  RH  067%=      5-min Rain = 0
KBR1 171316Z 21002KT 01/M04 A3013 RMK A01 T00141040  RH  067%=      5-min Rain = 0
KBR1 171317Z 22002KT 01/M04 A3013 RMK A01 T00141039  RH  068%=      5-min Rain = 0
KBR1 171318Z 21001KT 02/M04 A3013 RMK A01 T00201035  RH  067%=      5-min Rain = 0
KBR1 171319Z 20001KT 03/M03 A3013 RMK A01 T00271033  RH  065%=      5-min Rain = 0
KBR1 171320Z 21000KT 03/M03 A3012 RMK A01 T00321033  RH  062%=      5-min Rain = 0
KBR1 171321Z 20001KT 03/M04 A3012 RMK A01 T00291038  RH  061%=      5-min Rain = 0
KBR1 171322Z 22000KT 02/M04 A3012 RMK A01 T00221041  RH  063%=      5-min Rain = 0
KBR1 171323Z 04001KT 02/M04 A3012 RMK A01 T00181042  RH  065%=      5-min Rain = 0
KBR1 171324Z 00000KT 02/M04 A3012 RMK A01 T00151041  RH  066%=      5-min Rain = 0
KBR1 171325Z 17000KT 01/M04 A3013 RMK A01 T00131042  RH  067%=      5-min Rain = 0
KBR1 171326Z 17002KT 02/M04 A3013 RMK A01 T00151039  RH  067%=      5-min Rain = 0
KBR1 171327Z 17001KT 02/M04 A3013 RMK A01 T00191037  RH  066%=      5-min Rain = 0
KBR1 171328Z 16001KT 02/M04 A3013 RMK A01 T00241037  RH  064%=      5-min Rain = 0
KBR1 171329Z 15001KT 02/M04 A3013 RMK A01 T00211041  RH  064%=      5-min Rain = 0
KBR1 171330Z 16001KT 02/M04 A3013 RMK A01 T00191041  RH  065%=      5-min Rain = 0
KBR1 171331Z 16001KT 02/M04 A3013 RMK A01 T00191041  RH  065%=      5-min Rain = 0
KBR1 171332Z 14001KT 02/M04 A3012 RMK A01 T00241038  RH  064%=      5-min Rain = 0
KBR1 171333Z 12001KT 03/M04 A3012 RMK A01 T00291037  RH  062%=      5-min Rain = 0
KBR1 171334Z 11002KT 03/M04 A3013 RMK A01 T00321039  RH  060%=      5-min Rain = 0
KBR1 171335Z 10005KT 02/M05 A3013 RMK A01 T00211048  RH  060%=      5-min Rain = 0
KBR1 171336Z 09004KT 01/M05 A3013 RMK A01 T00111049  RH  064%=      5-min Rain = 0
KBR1 171337Z 09003KT 01/M05 A3013 RMK A01 T00061047  RH  068%=      5-min Rain = 0
KBR1 171338Z 09002KT 00/M04 A3013 RMK A01 T00031044  RH  070%=      5-min Rain = 0
KBR1 171339Z 07001KT 01/M04 A3012 RMK A01 T00071038  RH  071%=      5-min Rain = 0
KBR1 171340Z 07001KT 02/M03 A3012 RMK A01 T00171033  RH  070%=      5-min Rain = 0
KBR1 171341Z 05002KT 02/M04 A3013 RMK A01 T00221035  RH  066%=      5-min Rain = 0
KBR1 171342Z 03002KT 02/M04 A3013 RMK A01 T00171040  RH  066%=      5-min Rain = 0
KBR1 171343Z 02001KT 01/M04 A3013 RMK A01 T00131041  RH  067%=      5-min Rain = 0
KBR1 171344Z 35002KT 01/M04 A3013 RMK A01 T00111042  RH  068%=      5-min Rain = 0
KBR1 171345Z 01001KT 01/M04 A3013 RMK A01 T00091042  RH  069%=      5-min Rain = 0
KBR1 171346Z 32001KT 01/M04 A3013 RMK A01 T00061042  RH  070%=      5-min Rain = 0
KBR1 171347Z 00000KT 01/M04 A3013 RMK A01 T00071040  RH  071%=      5-min Rain = 0
KBR1 171348Z 00000KT 01/M04 A3013 RMK A01 T00111038  RH  070%=      5-min Rain = 0
KBR1 171349Z 00000KT 01/M04 A3013 RMK A01 T00121040  RH  068%=      5-min Rain = 0
KBR1 171350Z 00000KT 01/M04 A3013 RMK A01 T00111041  RH  068%=      5-min Rain = 0
KBR1 171351Z 14000KT 02/M04 A3013 RMK A01 T00161037  RH  068%=      5-min Rain = 0
KBR1 171352Z 12001KT 03/M03 A3013 RMK A01 T00261033  RH  065%=      5-min Rain = 0
KBR1 171353Z 12001KT 04/M03 A3013 RMK A01 T00351032  RH  061%=      5-min Rain = 0
KBR1 171354Z 13002KT 04/M04 A3013 RMK A01 T00361036  RH  059%=      5-min Rain = 0
KBR1 171355Z 15003KT 03/M04 A3014 RMK A01 T00311041  RH  059%=      5-min Rain = 0
KBR1 171356Z 17008KT 02/M05 A3014 RMK A01 T00221046  RH  061%=      5-min Rain = 0
KBR1 171357Z 18010KT 02/M04 A3015 RMK A01 T00151044  RH  065%=      5-min Rain = 0
KBR1 171358Z 18009KT 01/M04 A3015 RMK A01 T00121040  RH  068%=      5-min Rain = 0
KBR1 171359Z 18006KT 01/M04 A3015 RMK A01 T00091039  RH  070%=      5-min Rain = 0
KBR1 171400Z 16005KT 01/M04 A3015 RMK A01 T00071039  RH  071%=      5-min Rain = 0
KBR1 171401Z 14006KT 00/M04 A3015 RMK A01 T00041039  RH  072%=      5-min Rain = 0
KBR1 171402Z 15007KT 00/04 A3015 RMK A01 T00000-42  RH  073%=      5-min Rain = 0
KBR1 171403Z 16009KT M00/M04 A3015 RMK A01 T10031043  RH  074%=      5-min Rain = 0
KBR1 171404Z 17011KT M00/M04 A3015 RMK A01 T10041041  RH  076%=      5-min Rain = 0
KBR1 171405Z 17011KT M01/M04 A3015 RMK A01 T10051040  RH  077%=      5-min Rain = 0
KBR1 171406Z 17007KT M01/M04 A3015 RMK A01 T10051039  RH  078%=      5-min Rain = 0
KBR1 171407Z 18006KT M01/M04 A3015 RMK A01 T10061039  RH  078%=      5-min Rain = 0
KBR1 171408Z 19005KT M01/M04 A3015 RMK A01 T10061039  RH  079%=      5-min Rain = 0
KBR1 171409Z 20005KT M01/M04 A3015 RMK A01 T10071039  RH  079%=      5-min Rain = 0
KBR1 171410Z 19006KT M01/M04 A3015 RMK A01 T10081040  RH  079%=      5-min Rain = 0
KBR1 171411Z 19005KT M01/M04 A3015 RMK A01 T10091039  RH  080%=      5-min Rain = 0
KBR1 171412Z 18004KT M01/M04 A3015 RMK A01 T10081039  RH  080%=      5-min Rain = 0
KBR1 171413Z 18004KT M01/M04 A3015 RMK A01 T10091039  RH  080%=      5-min Rain = 0
KBR1 171414Z 19005KT M01/M04 A3015 RMK A01 T10091039  RH  080%=      5-min Rain = 0
KBR1 171415Z 20007KT M01/M04 A3016 RMK A01 T10111040  RH  080%=      5-min Rain = 0
KBR1 171416Z 19007KT M01/M04 A3016 RMK A01 T10121041  RH  081%=      5-min Rain = 0
KBR1 171417Z 19006KT M01/M04 A3015 RMK A01 T10131040  RH  082%=      5-min Rain = 0
KBR1 171418Z 19004KT M01/M04 A3015 RMK A01 T10131039  RH  082%=      5-min Rain = 0
KBR1 171419Z 19003KT M01/M04 A3015 RMK A01 T10131039  RH  083%=      5-min Rain = 0
KBR1 171420Z 19003KT M01/M04 A3015 RMK A01 T10131038  RH  083%=      5-min Rain = 0
KBR1 171421Z 19003KT M01/M04 A3016 RMK A01 T10121037  RH  083%=      5-min Rain = 0
KBR1 171422Z 19003KT M01/M04 A3016 RMK A01 T10111036  RH  083%=      5-min Rain = 0
KBR1 171423Z 20002KT M01/M03 A3016 RMK A01 T10091034  RH  083%=      5-min Rain = 0
KBR1 171424Z 23001KT M01/M03 A3016 RMK A01 T10081034  RH  082%=      5-min Rain = 0
KBR1 171425Z 00000KT M01/M03 A3015 RMK A01 T10071034  RH  082%=      5-min Rain = 0
KBR1 171426Z 21001KT M01/M04 A3016 RMK A01 T10081035  RH  082%=      5-min Rain = 0
KBR1 171427Z 21002KT M01/M04 A3016 RMK A01 T10091036  RH  082%=      5-min Rain = 0
KBR1 171428Z 21002KT M01/M04 A3016 RMK A01 T10091036  RH  082%=      5-min Rain = 0
KBR1 171429Z 20002KT M01/M03 A3016 RMK A01 T10081033  RH  083%=      5-min Rain = 0
KBR1 171430Z 20004KT M01/M03 A3016 RMK A01 T10061031  RH  083%=      5-min Rain = 0
KBR1 171431Z 19005KT M01/M03 A3016 RMK A01 T10051031  RH  082%=      5-min Rain = 0
KBR1 171432Z 20005KT M00/M03 A3016 RMK A01 T10041031  RH  082%=      5-min Rain = 0
KBR1 171433Z 20005KT M01/M03 A3016 RMK A01 T10051032  RH  082%=      5-min Rain = 0
KBR1 171434Z 20004KT M00/M03 A3016 RMK A01 T10041032  RH  082%=      5-min Rain = 0
KBR1 171435Z 21004KT M00/M03 A3016 RMK A01 T10041031  RH  082%=      5-min Rain = 0
KBR1 171436Z 22003KT M00/M03 A3016 RMK A01 T10041031  RH  082%=      5-min Rain = 0
KBR1 171437Z 22004KT M00/M03 A3016 RMK A01 T10031031  RH  081%=      5-min Rain = 0
KBR1 171438Z 22004KT M00/M03 A3016 RMK A01 T10031031  RH  081%=      5-min Rain = 0
KBR1 171439Z 22004KT M00/M03 A3016 RMK A01 T10031032  RH  081%=      5-min Rain = 0
KBR1 171440Z 21005KT M00/M03 A3016 RMK A01 T10031031  RH  081%=      5-min Rain = 0
KBR1 171441Z 22005KT M00/M03 A3016 RMK A01 T10031031  RH  082%=      5-min Rain = 0
KBR1 171442Z 22005KT M00/M03 A3016 RMK A01 T10021030  RH  082%=      5-min Rain = 0
KBR1 171443Z 22005KT M00/M03 A3016 RMK A01 T10021030  RH  081%=      5-min Rain = 0
KBR1 171444Z 22005KT M00/M03 A3016 RMK A01 T10021030  RH  081%=      5-min Rain = 0
KBR1 171445Z 23005KT M00/M03 A3016 RMK A01 T10011029  RH  082%=      5-min Rain = 0
KBR1 171446Z 23005KT 00/03 A3016 RMK A01 T00-00-28  RH  082%=      5-min Rain = 0
KBR1 171447Z 24005KT 00/03 A3016 RMK A01 T00000-27  RH  082%=      5-min Rain = 0
KBR1 171448Z 24004KT 00/M03 A3016 RMK A01 T00011027  RH  082%=      5-min Rain = 0
KBR1 171449Z 24004KT 00/M03 A3016 RMK A01 T00011026  RH  082%=      5-min Rain = 0
KBR1 171450Z 24004KT 00/M03 A3016 RMK A01 T00031025  RH  081%=      5-min Rain = 0
KBR1 171451Z 23004KT 00/M03 A3016 RMK A01 T00041025  RH  081%=      5-min Rain = 0
KBR1 171452Z 23003KT 01/M03 A3016 RMK A01 T00051025  RH  081%=      5-min Rain = 0
KBR1 171453Z 22003KT 01/M03 A3017 RMK A01 T00061025  RH  080%=      5-min Rain = 0
KBR1 171454Z 21002KT 01/M02 A3017 RMK A01 T00061024  RH  080%=      5-min Rain = 0
KBR1 171455Z 21003KT 01/M02 A3017 RMK A01 T00071024  RH  080%=      5-min Rain = 0
KBR1 171456Z 21003KT 01/M02 A3017 RMK A01 T00081023  RH  080%=      5-min Rain = 0
KBR1 171457Z 22003KT 01/M02 A3017 RMK A01 T00091023  RH  079%=      5-min Rain = 0
KBR1 171458Z 23003KT 01/M02 A3017 RMK A01 T00101023  RH  079%=      5-min Rain = 0
KBR1 171459Z 23003KT 01/M02 A3017 RMK A01 T00111023  RH  078%=      5-min Rain = 0
KBR1 171500Z 23003KT 01/M02 A3017 RMK A01 T00111023  RH  078%=      5-min Rain = 0
KBR1 171501Z 23002KT 01/M02 A3017 RMK A01 T00111023  RH  078%=      5-min Rain = 0
KBR1 171502Z 23002KT 01/M02 A3017 RMK A01 T00131022  RH  078%=      5-min Rain = 0
KBR1 171503Z 23003KT 01/M02 A3017 RMK A01 T00131022  RH  077%=      5-min Rain = 0
KBR1 171504Z 24003KT 02/M02 A3017 RMK A01 T00151022  RH  077%=      5-min Rain = 0
KBR1 171505Z 25002KT 02/M02 A3017 RMK A01 T00161022  RH  076%=      5-min Rain = 0
KBR1 171506Z 25003KT 02/M02 A3017 RMK A01 T00171020  RH  076%=      5-min Rain = 0
KBR1 171507Z 25003KT 02/M02 A3017 RMK A01 T00191019  RH  076%=      5-min Rain = 0
KBR1 171508Z 25003KT 02/M02 A3017 RMK A01 T00201019  RH  075%=      5-min Rain = 0
KBR1 171509Z 25003KT 02/M02 A3017 RMK A01 T00221018  RH  075%=      5-min Rain = 0
KBR1 171510Z 25003KT 02/M02 A3017 RMK A01 T00231017  RH  075%=      5-min Rain = 0
KBR1 171511Z 24003KT 02/M02 A3017 RMK A01 T00241017  RH  074%=      5-min Rain = 0
KBR1 171512Z 24002KT 03/M02 A3017 RMK A01 T00251018  RH  073%=      5-min Rain = 0
KBR1 171513Z 24001KT 03/M02 A3017 RMK A01 T00271016  RH  074%=      5-min Rain = 0
KBR1 171514Z 27001KT 03/M02 A3017 RMK A01 T00281015  RH  073%=      5-min Rain = 0
KBR1 171515Z 26001KT 03/M02 A3017 RMK A01 T00291015  RH  073%=      5-min Rain = 0
KBR1 171516Z 25001KT 03/M02 A3017 RMK A01 T00311015  RH  072%=      5-min Rain = 0
KBR1 171517Z 26002KT 03/M02 A3017 RMK A01 T00311016  RH  071%=      5-min Rain = 0
KBR1 171518Z 26002KT 03/M01 A3017 RMK A01 T00331014  RH  071%=      5-min Rain = 0
KBR1 171519Z 25003KT 03/M02 A3018 RMK A01 T00341015  RH  070%=      5-min Rain = 0
KBR1 171520Z 24003KT 03/M02 A3018 RMK A01 T00341015  RH  070%=      5-min Rain = 0
KBR1 171521Z 24003KT 03/M02 A3018 RMK A01 T00341017  RH  069%=      5-min Rain = 0
KBR1 171522Z 25003KT 03/M02 A3018 RMK A01 T00341017  RH  069%=      5-min Rain = 0
KBR1 171523Z 24004KT 04/M02 A3018 RMK A01 T00351016  RH  069%=      5-min Rain = 0
KBR1 171524Z 24003KT 04/M02 A3018 RMK A01 T00361016  RH  069%=      5-min Rain = 0
KBR1 171525Z 23004KT 04/M01 A3018 RMK A01 T00381013  RH  070%=      5-min Rain = 0
KBR1 171526Z 23003KT 04/M01 A3018 RMK A01 T00391013  RH  069%=      5-min Rain = 0
KBR1 171527Z 23002KT 04/M01 A3018 RMK A01 T00411013  RH  068%=      5-min Rain = 0
KBR1 171528Z 23003KT 04/M01 A3018 RMK A01 T00411012  RH  068%=      5-min Rain = 0
KBR1 171529Z 23003KT 04/M01 A3018 RMK A01 T00421012  RH  068%=      5-min Rain = 0
KBR1 171530Z 23003KT 04/M01 A3018 RMK A01 T00441012  RH  067%=      5-min Rain = 0
KBR1 171531Z 23004KT 05/M01 A3018 RMK A01 T00451012  RH  066%=      5-min Rain = 0
KBR1 171532Z 23004KT 05/M01 A3018 RMK A01 T00471011  RH  066%=      5-min Rain = 0
KBR1 171533Z 22003KT 05/M01 A3018 RMK A01 T00491010  RH  066%=      5-min Rain = 0
KBR1 171534Z 22004KT 05/M01 A3018 RMK A01 T00511010  RH  065%=      5-min Rain = 0
KBR1 171535Z 21004KT 05/M01 A3018 RMK A01 T00521011  RH  064%=      5-min Rain = 0
KBR1 171536Z 22005KT 05/M01 A3018 RMK A01 T00541013  RH  062%=      5-min Rain = 0
KBR1 171537Z 22005KT 05/M01 A3018 RMK A01 T00541014  RH  061%=      5-min Rain = 0
KBR1 171538Z 22004KT 06/M01 A3017 RMK A01 T00551013  RH  061%=      5-min Rain = 0
KBR1 171539Z 21003KT 06/M01 A3017 RMK A01 T00571014  RH  061%=      5-min Rain = 0
KBR1 171540Z 20004KT 06/M01 A3017 RMK A01 T00591013  RH  060%=      5-min Rain = 0
KBR1 171541Z 21004KT 06/M01 A3017 RMK A01 T00611014  RH  058%=      5-min Rain = 0
KBR1 171542Z 21004KT 06/M02 A3017 RMK A01 T00621017  RH  057%=      5-min Rain = 0
KBR1 171543Z 20005KT 06/M02 A3018 RMK A01 T00631017  RH  057%=      5-min Rain = 0
KBR1 171544Z 22004KT 06/M02 A3018 RMK A01 T00631016  RH  057%=      5-min Rain = 0
KBR1 171545Z 22003KT 06/M02 A3018 RMK A01 T00641015  RH  057%=      5-min Rain = 0
KBR1 171546Z 21003KT 07/M01 A3018 RMK A01 T00661012  RH  058%=      5-min Rain = 0
KBR1 171547Z 21006KT 07/M01 A3018 RMK A01 T00681011  RH  057%=      5-min Rain = 0
KBR1 171548Z 21005KT 07/M02 A3018 RMK A01 T00691015  RH  055%=      5-min Rain = 0
KBR1 171549Z 22005KT 07/M02 A3018 RMK A01 T00701016  RH  055%=      5-min Rain = 0
KBR1 171550Z 22005KT 07/M02 A3018 RMK A01 T00711015  RH  054%=      5-min Rain = 0
KBR1 171551Z 22006KT 07/M02 A3018 RMK A01 T00721016  RH  054%=      5-min Rain = 0
KBR1 171552Z 22007KT 07/M02 A3018 RMK A01 T00731015  RH  054%=      5-min Rain = 0
KBR1 171553Z 23006KT 07/M01 A3018 RMK A01 T00741014  RH  054%=      5-min Rain = 0
KBR1 171554Z 23006KT 08/M01 A3018 RMK A01 T00761014  RH  053%=      5-min Rain = 0
KBR1 171555Z 23007KT 08/M01 A3018 RMK A01 T00761014  RH  053%=      5-min Rain = 0
KBR1 171556Z 23008KT 08/M02 A3018 RMK A01 T00771016  RH  052%=      5-min Rain = 0
KBR1 171557Z 22006KT 08/M02 A3018 RMK A01 T00761017  RH  052%=      5-min Rain = 0
KBR1 171558Z 23007KT 08/M02 A3018 RMK A01 T00761016  RH  052%=      5-min Rain = 0
KBR1 171559Z 22007KT 08/M02 A3018 RMK A01 T00761015  RH  052%=      5-min Rain = 0
KBR1 171600Z 23007KT 08/M02 A3017 RMK A01 T00771016  RH  052%=      5-min Rain = 0
KBR1 171601Z 23007KT 08/M02 A3017 RMK A01 T00781016  RH  052%=      5-min Rain = 0
KBR1 171602Z 23007KT 08/M02 A3017 RMK A01 T00781016  RH  052%=      5-min Rain = 0
KBR1 171603Z 22005KT 08/M02 A3017 RMK A01 T00781016  RH  051%=      5-min Rain = 0
KBR1 171604Z 24007KT 08/M01 A3017 RMK A01 T00791013  RH  052%=      5-min Rain = 0
KBR1 171605Z 25006KT 08/M02 A3017 RMK A01 T00801015  RH  051%=      5-min Rain = 0
KBR1 171606Z 23006KT 08/M02 A3017 RMK A01 T00801016  RH  051%=      5-min Rain = 0
KBR1 171607Z 23006KT 08/M02 A3017 RMK A01 T00801015  RH  051%=      5-min Rain = 0
KBR1 171608Z 24005KT 08/M02 A3018 RMK A01 T00811015  RH  051%=      5-min Rain = 0
KBR1 171609Z 24006KT 08/M02 A3018 RMK A01 T00821016  RH  050%=      5-min Rain = 0
KBR1 171610Z 25007KT 08/M02 A3018 RMK A01 T00831016  RH  050%=      5-min Rain = 0
KBR1 171611Z 23008KT 08/M02 A3018 RMK A01 T00831016  RH  050%=      5-min Rain = 0
KBR1 171612Z 23009KT 08/M02 A3018 RMK A01 T00841017  RH  049%=      5-min Rain = 0
KBR1 171613Z 23009KT 08/M02 A3018 RMK A01 T00841017  RH  049%=      5-min Rain = 0
KBR1 171614Z 23006KT 09/M02 A3018 RMK A01 T00851016  RH  049%=      5-min Rain = 0
KBR1 171615Z 20007KT 09/M01 A3018 RMK A01 T00871013  RH  049%=      5-min Rain = 0
KBR1 171616Z 22007KT 09/M01 A3018 RMK A01 T00891014  RH  048%=      5-min Rain = 0
KBR1 171617Z 21009KT 09/M02 A3018 RMK A01 T00891015  RH  048%=      5-min Rain = 0
KBR1 171618Z 21009KT 09/M02 A3018 RMK A01 T00901015  RH  048%=      5-min Rain = 0
KBR1 171619Z 21009KT 09/M02 A3018 RMK A01 T00901016  RH  047%=      5-min Rain = 0
KBR1 171620Z 22008KT 09/M02 A3018 RMK A01 T00901015  RH  048%=      5-min Rain = 0
KBR1 171621Z 22009KT 09/M02 A3018 RMK A01 T00891015  RH  048%=      5-min Rain = 0
KBR1 171622Z 21010KT 09/M01 A3018 RMK A01 T00911014  RH  048%=      5-min Rain = 0
KBR1 171623Z 21010KT 09/M01 A3018 RMK A01 T00921014  RH  047%=      5-min Rain = 0
KBR1 171624Z 22010KT 09/M02 A3018 RMK A01 T00931015  RH  047%=      5-min Rain = 0
KBR1 171625Z 22009KT 09/M02 A3019 RMK A01 T00931015  RH  047%=      5-min Rain = 0
KBR1 171626Z 21009KT 10/M01 A3019 RMK A01 T00951013  RH  047%=      5-min Rain = 0
KBR1 171627Z 21010KT 10/M01 A3019 RMK A01 T00971012  RH  046%=      5-min Rain = 0
KBR1 171628Z 20011KT 10/M01 A3019 RMK A01 T00981014  RH  046%=      5-min Rain = 0
KBR1 171629Z 20011KT 10/M02 A3019 RMK A01 T00971015  RH  045%=      5-min Rain = 0
KBR1 171630Z 22010KT 10/M02 A3019 RMK A01 T00971015  RH  046%=      5-min Rain = 0
KBR1 171631Z 21008KT 10/M01 A3019 RMK A01 T00971014  RH  046%=      5-min Rain = 0
KBR1 171632Z 21009KT 10/M02 A3019 RMK A01 T00981015  RH  045%=      5-min Rain = 0
KBR1 171633Z 21007KT 10/M02 A3019 RMK A01 T00981016  RH  045%=      5-min Rain = 0
KBR1 171634Z 22009KT 10/M02 A3019 RMK A01 T00981018  RH  044%=      5-min Rain = 0
KBR1 171635Z 23009KT 10/M02 A3019 RMK A01 T00981019  RH  044%=      5-min Rain = 0
KBR1 171636Z 22009KT 10/M02 A3019 RMK A01 T00981018  RH  044%=      5-min Rain = 0
KBR1 171637Z 21008KT 10/M02 A3019 RMK A01 T01001016  RH  044%=      5-min Rain = 0
KBR1 171638Z 22009KT 10/M02 A3019 RMK A01 T01001019  RH  043%=      5-min Rain = 0
KBR1 171639Z 22007KT 10/M02 A3019 RMK A01 T01001017  RH  044%=      5-min Rain = 0
KBR1 171640Z 20009KT 10/M02 A3019 RMK A01 T01011015  RH  044%=      5-min Rain = 0
KBR1 171641Z 21010KT 10/M02 A3019 RMK A01 T01021017  RH  043%=      5-min Rain = 0
KBR1 171642Z 22010KT 10/M02 A3019 RMK A01 T01011019  RH  043%=      5-min Rain = 0
KBR1 171643Z 22009KT 10/M02 A3019 RMK A01 T01011019  RH  043%=      5-min Rain = 0
KBR1 171644Z 22007KT 10/M02 A3019 RMK A01 T01021019  RH  043%=      5-min Rain = 0
KBR1 171645Z 20006KT 10/M02 A3019 RMK A01 T01041015  RH  043%=      5-min Rain = 0
KBR1 171646Z 21007KT 11/M02 A3019 RMK A01 T01061016  RH  043%=      5-min Rain = 0
KBR1 171647Z 20009KT 11/M02 A3019 RMK A01 T01051016  RH  043%=      5-min Rain = 0
KBR1 171648Z 21008KT 11/M02 A3019 RMK A01 T01051016  RH  043%=      5-min Rain = 0
KBR1 171649Z 20008KT 11/M01 A3019 RMK A01 T01061014  RH  043%=      5-min Rain = 0
KBR1 171650Z 20009KT 11/M02 A3019 RMK A01 T01081016  RH  042%=      5-min Rain = 0
KBR1 171651Z 20009KT 11/M02 A3019 RMK A01 T01071017  RH  042%=      5-min Rain = 0
KBR1 171652Z 22010KT 11/M02 A3019 RMK A01 T01061017  RH  042%=      5-min Rain = 0
KBR1 171653Z 21011KT 11/M02 A3019 RMK A01 T01071018  RH  042%=      5-min Rain = 0
KBR1 171654Z 20010KT 11/M02 A3019 RMK A01 T01081017  RH  042%=      5-min Rain = 0
KBR1 171655Z 20010KT 11/M02 A3019 RMK A01 T01071018  RH  042%=      5-min Rain = 0
KBR1 171656Z 22008KT 11/M02 A3019 RMK A01 T01061018  RH  042%=      5-min Rain = 0
KBR1 171657Z 22008KT 11/M02 A3019 RMK A01 T01081016  RH  042%=      5-min Rain = 0
KBR1 171658Z 21009KT 11/M02 A3019 RMK A01 T01091016  RH  042%=      5-min Rain = 0
KBR1 171659Z 21008KT 11/M02 A3019 RMK A01 T01091018  RH  041%=      5-min Rain = 0
KBR1 171700Z 21008KT 11/M02 A3019 RMK A01 T01081018  RH  042%=      5-min Rain = 0
KBR1 171701Z 20007KT 11/M02 A3019 RMK A01 T01111015  RH  042%=      5-min Rain = 0
KBR1 171702Z 20008KT 11/M01 A3019 RMK A01 T01131014  RH  041%=      5-min Rain = 0
KBR1 171703Z 20008KT 11/M02 A3019 RMK A01 T01141015  RH  041%=      5-min Rain = 0
KBR1 171704Z 20008KT 11/M02 A3019 RMK A01 T01121017  RH  040%=      5-min Rain = 0
KBR1 171705Z 20008KT 11/M02 A3019 RMK A01 T01111020  RH  040%=      5-min Rain = 0
KBR1 171706Z 20007KT 11/M02 A3019 RMK A01 T01101020  RH  040%=      5-min Rain = 0
KBR1 171707Z 19007KT 11/M02 A3019 RMK A01 T01081022  RH  040%=      5-min Rain = 0
KBR1 171708Z 20007KT 11/M02 A3019 RMK A01 T01081021  RH  040%=      5-min Rain = 0
KBR1 171709Z 19006KT 11/M02 A3019 RMK A01 T01081022  RH  040%=      5-min Rain = 0
KBR1 171710Z 19005KT 11/M02 A3019 RMK A01 T01101020  RH  040%=      5-min Rain = 0
KBR1 171711Z 22006KT 11/M02 A3019 RMK A01 T01131019  RH  040%=      5-min Rain = 0
KBR1 171712Z 23006KT 11/M02 A3019 RMK A01 T01131020  RH  039%=      5-min Rain = 0
KBR1 171713Z 22006KT 11/M02 A3019 RMK A01 T01131019  RH  040%=      5-min Rain = 0
KBR1 171714Z 21006KT 12/M02 A3019 RMK A01 T01151018  RH  039%=      5-min Rain = 0
KBR1 171715Z 19008KT 12/M02 A3019 RMK A01 T01151022  RH  038%=      5-min Rain = 0
KBR1 171716Z 20007KT 12/M02 A3019 RMK A01 T01151021  RH  039%=      5-min Rain = 0
KBR1 171717Z 20006KT 12/M02 A3019 RMK A01 T01151021  RH  039%=      5-min Rain = 0
KBR1 171718Z 20006KT 12/M02 A3019 RMK A01 T01151017  RH  040%=      5-min Rain = 0
KBR1 171719Z 21007KT 12/M02 A3019 RMK A01 T01201015  RH  039%=      5-min Rain = 0
KBR1 171720Z 21009KT 12/M02 A3019 RMK A01 T01211022  RH  037%=      5-min Rain = 0
KBR1 171721Z 21006KT 12/M02 A3019 RMK A01 T01181023  RH  037%=      5-min Rain = 0
KBR1 171722Z 22007KT 12/M02 A3019 RMK A01 T01181022  RH  038%=      5-min Rain = 0
KBR1 171723Z 23007KT 12/M02 A3019 RMK A01 T01171024  RH  037%=      5-min Rain = 0
KBR1 171724Z 23006KT 12/M02 A3019 RMK A01 T01161024  RH  038%=      5-min Rain = 0
KBR1 171725Z 23005KT 12/M02 A3019 RMK A01 T01161022  RH  038%=      5-min Rain = 0
KBR1 171726Z 20007KT 12/M02 A3019 RMK A01 T01181018  RH  039%=      5-min Rain = 0
KBR1 171727Z 20008KT 12/M02 A3019 RMK A01 T01221016  RH  038%=      5-min Rain = 0
KBR1 171728Z 20008KT 12/M02 A3019 RMK A01 T01231021  RH  037%=      5-min Rain = 0
KBR1 171729Z 21006KT 12/M02 A3019 RMK A01 T01211022  RH  037%=      5-min Rain = 0
KBR1 171730Z 23008KT 12/M02 A3019 RMK A01 T01211022  RH  037%=      5-min Rain = 0
KBR1 171731Z 22007KT 12/M02 A3019 RMK A01 T01211022  RH  037%=      5-min Rain = 0
KBR1 171732Z 21007KT 12/M02 A3019 RMK A01 T01221021  RH  037%=      5-min Rain = 0
KBR1 171733Z 20007KT 12/M02 A3019 RMK A01 T01231022  RH  036%=      5-min Rain = 0
KBR1 171734Z 22007KT 12/M02 A3019 RMK A01 T01231022  RH  036%=      5-min Rain = 0
KBR1 171735Z 21009KT 12/M02 A3019 RMK A01 T01231021  RH  037%=      5-min Rain = 0
KBR1 171736Z 22009KT 12/M02 A3019 RMK A01 T01241020  RH  037%=      5-min Rain = 0
KBR1 171737Z 21006KT 13/M02 A3019 RMK A01 T01251020  RH  036%=      5-min Rain = 0
KBR1 171738Z 20010KT 13/M02 A3019 RMK A01 T01261020  RH  036%=      5-min Rain = 0
KBR1 171739Z 20010KT 13/M02 A3019 RMK A01 T01251024  RH  035%=      5-min Rain = 0
KBR1 171740Z 21010KT 13/M02 A3019 RMK A01 T01251024  RH  035%=      5-min Rain = 0
KBR1 171741Z 21007KT 13/M02 A3019 RMK A01 T01261024  RH  035%=      5-min Rain = 0
KBR1 171742Z 21007KT 13/M02 A3019 RMK A01 T01261021  RH  036%=      5-min Rain = 0
KBR1 171743Z 21007KT 13/M02 A3019 RMK A01 T01281021  RH  036%=      5-min Rain = 0
KBR1 171744Z 20007KT 13/M02 A3019 RMK A01 T01281021  RH  035%=      5-min Rain = 0
KBR1 171745Z 20008KT 13/M02 A3018 RMK A01 T01281020  RH  036%=      5-min Rain = 0
KBR1 171746Z 21007KT 13/M02 A3018 RMK A01 T01301019  RH  036%=      5-min Rain = 0
KBR1 171747Z 22007KT 13/M02 A3018 RMK A01 T01311020  RH  035%=      5-min Rain = 0
KBR1 171748Z 23006KT 13/M02 A3018 RMK A01 T01311023  RH  034%=      5-min Rain = 0
KBR1 171749Z 22007KT 13/M02 A3018 RMK A01 T01311022  RH  035%=      5-min Rain = 0
KBR1 171750Z 23007KT 13/M02 A3018 RMK A01 T01311022  RH  035%=      5-min Rain = 0
KBR1 171751Z 23006KT 13/M02 A3018 RMK A01 T01301024  RH  034%=      5-min Rain = 0
KBR1 171752Z 21006KT 13/M02 A3018 RMK A01 T01301022  RH  035%=      5-min Rain = 0
KBR1 171753Z 22006KT 13/M02 A3018 RMK A01 T01331018  RH  035%=      5-min Rain = 0
KBR1 171754Z 19007KT 14/M02 A3018 RMK A01 T01351019  RH  034%=      5-min Rain = 0
KBR1 171755Z 22007KT 14/M02 A3018 RMK A01 T01361019  RH  034%=      5-min Rain = 0
KBR1 171756Z 21007KT 14/M02 A3018 RMK A01 T01361023  RH  033%=      5-min Rain = 0
KBR1 171757Z 23007KT 14/M02 A3018 RMK A01 T01361022  RH  033%=      5-min Rain = 0
KBR1 171758Z 20010KT 14/M02 A3018 RMK A01 T01391020  RH  033%=      5-min Rain = 0
KBR1 171759Z 20006KT 14/M02 A3018 RMK A01 T01381022  RH  033%=      5-min Rain = 0
KBR1 171800Z 20010KT 14/M02 A3018 RMK A01 T01351023  RH  033%=      5-min Rain = 0
KBR1 171801Z 21007KT 14/M02 A3018 RMK A01 T01361020  RH  034%=      5-min Rain = 0
KBR1 171802Z 21007KT 14/M02 A3018 RMK A01 T01371021  RH  033%=      5-min Rain = 0
KBR1 171803Z 18009KT 14/M02 A3017 RMK A01 T01361022  RH  033%=      5-min Rain = 0
KBR1 171804Z 19006KT 13/M02 A3017 RMK A01 T01341023  RH  034%=      5-min Rain = 0
KBR1 171805Z 20009KT 13/M02 A3017 RMK A01 T01341022  RH  034%=      5-min Rain = 0
KBR1 171806Z 22007KT 14/M02 A3017 RMK A01 T01361020  RH  034%=      5-min Rain = 0
KBR1 171807Z 21008KT 14/M02 A3017 RMK A01 T01361022  RH  033%=      5-min Rain = 0
KBR1 171808Z 21008KT 14/M02 A3017 RMK A01 T01361021  RH  034%=      5-min Rain = 0
KBR1 171809Z 20008KT 14/M02 A3017 RMK A01 T01361020  RH  034%=      5-min Rain = 0
KBR1 171810Z 20006KT 14/M02 A3017 RMK A01 T01381020  RH  034%=      5-min Rain = 0
KBR1 171811Z 20006KT 14/M02 A3017 RMK A01 T01391021  RH  033%=      5-min Rain = 0
KBR1 171812Z 20004KT 14/M02 A3016 RMK A01 T01361024  RH  033%=      5-min Rain = 0
KBR1 171813Z 19006KT 14/M02 A3016 RMK A01 T01351023  RH  033%=      5-min Rain = 0
KBR1 171814Z 18008KT 14/M02 A3016 RMK A01 T01361023  RH  033%=      5-min Rain = 0
KBR1 171815Z 18008KT 14/M02 A3016 RMK A01 T01381022  RH  033%=      5-min Rain = 0
KBR1 171816Z 21009KT 14/M02 A3016 RMK A01 T01401021  RH  033%=      5-min Rain = 0
KBR1 171817Z 21009KT 14/M02 A3016 RMK A01 T01411022  RH  032%=      5-min Rain = 0
KBR1 171818Z 20006KT 14/M02 A3016 RMK A01 T01401022  RH  032%=      5-min Rain = 0
KBR1 171819Z 21007KT 14/M02 A3016 RMK A01 T01411020  RH  033%=      5-min Rain = 0
KBR1 171820Z 23007KT 14/M02 A3016 RMK A01 T01421022  RH  032%=      5-min Rain = 0
KBR1 171821Z 22007KT 14/M02 A3016 RMK A01 T01421023  RH  032%=      5-min Rain = 0
KBR1 171822Z 23006KT 14/M03 A3015 RMK A01 T01411025  RH  032%=      5-min Rain = 0
KBR1 171823Z 23006KT 14/M02 A3015 RMK A01 T01411024  RH  032%=      5-min Rain = 0
KBR1 171824Z 21006KT 14/M03 A3015 RMK A01 T01421025  RH  031%=      5-min Rain = 0
KBR1 171825Z 23007KT 14/M02 A3015 RMK A01 T01421024  RH  032%=      5-min Rain = 0
KBR1 171826Z 24006KT 14/M03 A3015 RMK A01 T01411026  RH  031%=      5-min Rain = 0
KBR1 171827Z 19007KT 14/M03 A3015 RMK A01 T01391025  RH  032%=      5-min Rain = 0
KBR1 171828Z 20007KT 14/M02 A3015 RMK A01 T01421022  RH  032%=      5-min Rain = 0
KBR1 171829Z 21006KT 14/M02 A3015 RMK A01 T01441022  RH  032%=      5-min Rain = 0
KBR1 171830Z 19008KT 14/M03 A3015 RMK A01 T01431025  RH  031%=      5-min Rain = 0
KBR1 171831Z 20007KT 14/M02 A3015 RMK A01 T01431024  RH  031%=      5-min Rain = 0
KBR1 171832Z 20008KT 14/M02 A3015 RMK A01 T01431024  RH  032%=      5-min Rain = 0
KBR1 171833Z 22009KT 15/M02 A3015 RMK A01 T01461023  RH  031%=      5-min Rain = 0
KBR1 171834Z 20008KT 15/M03 A3015 RMK A01 T01461025  RH  031%=      5-min Rain = 0
KBR1 171835Z 18008KT 15/M02 A3015 RMK A01 T01461023  RH  031%=      5-min Rain = 0
KBR1 171836Z 20009KT 15/M02 A3015 RMK A01 T01471021  RH  031%=      5-min Rain = 0
KBR1 171837Z 22007KT 15/M02 A3015 RMK A01 T01481023  RH  031%=      5-min Rain = 0
KBR1 171838Z 23005KT 15/M02 A3015 RMK A01 T01501023  RH  030%=      5-min Rain = 0
KBR1 171839Z 19007KT 15/M02 A3014 RMK A01 T01501022  RH  030%=      5-min Rain = 0
KBR1 171840Z 19006KT 15/M03 A3014 RMK A01 T01471026  RH  030%=      5-min Rain = 0
KBR1 171841Z 20008KT 15/M02 A3014 RMK A01 T01461023  RH  031%=      5-min Rain = 0
KBR1 171842Z 18009KT 15/M02 A3014 RMK A01 T01481022  RH  031%=      5-min Rain = 0
KBR1 171843Z 18008KT 15/M02 A3014 RMK A01 T01491022  RH  031%=      5-min Rain = 0
KBR1 171844Z 18009KT 15/M02 A3014 RMK A01 T01491023  RH  031%=      5-min Rain = 0
KBR1 171845Z 19009KT 15/M02 A3014 RMK A01 T01511024  RH  030%=      5-min Rain = 0
KBR1 171846Z 20010KT 15/M03 A3014 RMK A01 T01511025  RH  030%=      5-min Rain = 0
KBR1 171847Z 20010KT 15/M02 A3014 RMK A01 T01521024  RH  030%=      5-min Rain = 0
KBR1 171848Z 21009KT 15/M03 A3014 RMK A01 T01531025  RH  029%=      5-min Rain = 0
KBR1 171849Z 20008KT 15/M03 A3014 RMK A01 T01501027  RH  029%=      5-min Rain = 0
KBR1 171850Z 20006KT 15/M03 A3013 RMK A01 T01481029  RH  029%=      5-min Rain = 0
KBR1 171851Z 19008KT 15/M03 A3013 RMK A01 T01491026  RH  030%=      5-min Rain = 0
KBR1 171852Z 20008KT 15/M03 A3013 RMK A01 T01511026  RH  029%=      5-min Rain = 0
KBR1 171853Z 20010G16KT 15/M03 A3013 RMK A01 T01521026  RH  029%=      5-min Rain = 0
KBR1 171854Z 20012KT 15/M03 A3013 RMK A01 T01531027  RH  029%=      5-min Rain = 0
KBR1 171855Z 21010KT 15/M03 A3013 RMK A01 T01541028  RH  029%=      5-min Rain = 0
KBR1 171856Z 20009KT 16/M03 A3013 RMK A01 T01561027  RH  028%=      5-min Rain = 0
KBR1 171857Z 21009KT 16/M03 A3013 RMK A01 T01561028  RH  028%=      5-min Rain = 0
KBR1 171858Z 21010KT 16/M03 A3013 RMK A01 T01561027  RH  028%=      5-min Rain = 0
KBR1 171859Z 20012KT 16/M03 A3013 RMK A01 T01581026  RH  028%=      5-min Rain = 0
KBR1 171900Z 20011KT 16/M03 A3013 RMK A01 T01581026  RH  028%=      5-min Rain = 0
KBR1 171901Z 20013KT 16/M03 A3013 RMK A01 T01581026  RH  028%=      5-min Rain = 0
KBR1 171902Z 19012KT 16/M03 A3013 RMK A01 T01561028  RH  028%=      5-min Rain = 0
KBR1 171903Z 20013KT 15/M03 A3013 RMK A01 T01541028  RH  028%=      5-min Rain = 0
KBR1 171904Z 21013KT 16/M03 A3012 RMK A01 T01581028  RH  028%=      5-min Rain = 0
KBR1 171905Z 21012KT 16/M03 A3012 RMK A01 T01581030  RH  027%=      5-min Rain = 0
KBR1 171906Z 21014KT 16/M03 A3012 RMK A01 T01571030  RH  027%=      5-min Rain = 0
KBR1 171907Z 21011KT 16/M03 A3012 RMK A01 T01571031  RH  027%=      5-min Rain = 0
KBR1 171908Z 21011KT 16/M03 A3012 RMK A01 T01551031  RH  028%=      5-min Rain = 0
KBR1 171909Z 20013KT 16/M03 A3012 RMK A01 T01551031  RH  028%=      5-min Rain = 0
KBR1 171910Z 21012KT 16/M03 A3012 RMK A01 T01571030  RH  028%=      5-min Rain = 0
KBR1 171911Z 20014KT 16/M03 A3012 RMK A01 T01601028  RH  027%=      5-min Rain = 0
KBR1 171912Z 21013KT 16/M03 A3012 RMK A01 T01601030  RH  027%=      5-min Rain = 0
KBR1 171913Z 21010KT 16/M03 A3012 RMK A01 T01581030  RH  027%=      5-min Rain = 0
KBR1 171914Z 20012KT 16/M03 A3012 RMK A01 T01611028  RH  027%=      5-min Rain = 0
KBR1 171915Z 20013KT 16/M03 A3012 RMK A01 T01611030  RH  027%=      5-min Rain = 0
KBR1 171916Z 22012KT 16/M03 A3012 RMK A01 T01601032  RH  027%=      5-min Rain = 0
KBR1 171917Z 20015KT 16/M03 A3012 RMK A01 T01591031  RH  027%=      5-min Rain = 0
KBR1 171918Z 20013KT 16/M03 A3012 RMK A01 T01601031  RH  027%=      5-min Rain = 0
KBR1 171919Z 20012KT 16/M03 A3012 RMK A01 T01601032  RH  027%=      5-min Rain = 0
KBR1 171920Z 19012KT 16/M03 A3012 RMK A01 T01591031  RH  027%=      5-min Rain = 0
KBR1 171921Z 20011KT 16/M03 A3011 RMK A01 T01591028  RH  028%=      5-min Rain = 0
KBR1 171922Z 20013KT 16/M03 A3011 RMK A01 T01591027  RH  028%=      5-min Rain = 0
KBR1 171923Z 20013KT 16/M03 A3011 RMK A01 T01601026  RH  028%=      5-min Rain = 0
KBR1 171924Z 21011KT 16/M03 A3011 RMK A01 T01591027  RH  028%=      5-min Rain = 0
KBR1 171925Z 20013KT 16/M03 A3011 RMK A01 T01601026  RH  028%=      5-min Rain = 0
KBR1 171926Z 20013KT 16/M03 A3011 RMK A01 T01621025  RH  028%=      5-min Rain = 0
KBR1 171927Z 20011KT 16/M03 A3011 RMK A01 T01621026  RH  028%=      5-min Rain = 0
KBR1 171928Z 19012KT 16/M03 A3011 RMK A01 T01611026  RH  028%=      5-min Rain = 0
KBR1 171929Z 20013KT 16/M03 A301 RMK A01 T01621026  RH  027%=      5-min Rain = 0
KBR1 171930Z 19012G17KT 16/M03 A301 RMK A01 T01611029  RH  027%=      5-min Rain = 0
KBR1 171931Z 20013KT 16/M03 A301 RMK A01 T01611027  RH  027%=      5-min Rain = 0
KBR1 171932Z 20014KT 16/M03 A301 RMK A01 T01621026  RH  027%=      5-min Rain = 0
KBR1 171933Z 20013KT 16/M03 A301 RMK A01 T01621027  RH  027%=      5-min Rain = 0
KBR1 171934Z 21012G17KT 16/M03 A301 RMK A01 T01611027  RH  027%=      5-min Rain = 0
KBR1 171935Z 21014KT 16/M03 A301 RMK A01 T01621028  RH  027%=      5-min Rain = 0
KBR1 171936Z 21010KT 16/M03 A301 RMK A01 T01621028  RH  027%=      5-min Rain = 0
KBR1 171937Z 20012KT 16/M03 A301 RMK A01 T01631027  RH  027%=      5-min Rain = 0
KBR1 171938Z 21015KT 16/M03 A301 RMK A01 T01631027  RH  027%=      5-min Rain = 0
KBR1 171939Z 20013KT 17/M03 A301 RMK A01 T01651028  RH  027%=      5-min Rain = 0
KBR1 171940Z 21011KT 17/M03 A3009 RMK A01 T01651028  RH  026%=      5-min Rain = 0
KBR1 171941Z 21012G17KT 17/M03 A3009 RMK A01 T01651028  RH  027%=      5-min Rain = 0
KBR1 171942Z 19010KT 17/M03 A3009 RMK A01 T01661026  RH  027%=      5-min Rain = 0
KBR1 171943Z 21011KT 17/M03 A3009 RMK A01 T01691028  RH  026%=      5-min Rain = 0
KBR1 171944Z 20013KT 17/M03 A3009 RMK A01 T01681027  RH  026%=      5-min Rain = 0
KBR1 171945Z 20014KT 17/M03 A3009 RMK A01 T01681028  RH  026%=      5-min Rain = 0
KBR1 171946Z 21015KT 17/M03 A3009 RMK A01 T01701029  RH  026%=      5-min Rain = 0
KBR1 171947Z 20016KT 17/M03 A3009 RMK A01 T01701030  RH  025%=      5-min Rain = 0
KBR1 171948Z 20014KT 17/M03 A3009 RMK A01 T01691031  RH  025%=      5-min Rain = 0
KBR1 171949Z 21011KT 17/M03 A3009 RMK A01 T01681030  RH  026%=      5-min Rain = 0
KBR1 171950Z 20012KT 17/M03 A3009 RMK A01 T01681033  RH  025%=      5-min Rain = 0
KBR1 171951Z 21014KT 17/M03 A3008 RMK A01 T01691032  RH  025%=      5-min Rain = 0
KBR1 171952Z 21014KT 17/M03 A3008 RMK A01 T01701034  RH  024%=      5-min Rain = 0
KBR1 171953Z 21013KT 17/M03 A3008 RMK A01 T01701034  RH  025%=      5-min Rain = 0
KBR1 171954Z 22011KT 17/M04 A3008 RMK A01 T01681036  RH  025%=      5-min Rain = 0
KBR1 171955Z 22014KT 17/M03 A3008 RMK A01 T01701033  RH  025%=      5-min Rain = 0
KBR1 171956Z 21012KT 17/M03 A3008 RMK A01 T01711032  RH  025%=      5-min Rain = 0
KBR1 171957Z 21011KT 17/M03 A3008 RMK A01 T01711031  RH  025%=      5-min Rain = 0
KBR1 171958Z 21012KT 17/M03 A3008 RMK A01 T01711033  RH  025%=      5-min Rain = 0
KBR1 171959Z 21013KT 17/M03 A3008 RMK A01 T01701033  RH  025%=      5-min Rain = 0
KBR1 172000Z 22008KT 17/M03 A3008 RMK A01 T01691031  RH  025%=      5-min Rain = 0
KBR1 172001Z 21014KT 17/M03 A3008 RMK A01 T01731027  RH  025%=      5-min Rain = 0
KBR1 172002Z 21013KT 18/M03 A3008 RMK A01 T01751028  RH  025%=      5-min Rain = 0
KBR1 172003Z 20011KT 17/M03 A3008 RMK A01 T01741029  RH  025%=      5-min Rain = 0
KBR1 172004Z 20011KT 18/M03 A3008 RMK A01 T01751027  RH  025%=      5-min Rain = 0
KBR1 172005Z 20010KT 17/M03 A3007 RMK A01 T01741030  RH  025%=      5-min Rain = 0
KBR1 172006Z 19014KT 18/M03 A3007 RMK A01 T01761026  RH  025%=      5-min Rain = 0
KBR1 172007Z 19013KT 18/M03 A3007 RMK A01 T01761029  RH  024%=      5-min Rain = 0
KBR1 172008Z 20010KT 18/M03 A3007 RMK A01 T01751029  RH  025%=      5-min Rain = 0
KBR1 172009Z 21013KT 18/M03 A3007 RMK A01 T01761029  RH  025%=      5-min Rain = 0
KBR1 172010Z 22012KT 18/M04 A3007 RMK A01 T01771036  RH  023%=      5-min Rain = 0
KBR1 172011Z 22011KT 18/M04 A3007 RMK A01 T01771036  RH  023%=      5-min Rain = 0
KBR1 172012Z 21011KT 18/M03 A3007 RMK A01 T01791034  RH  023%=      5-min Rain = 0
KBR1 172013Z 20010KT 18/M03 A3006 RMK A01 T01801032  RH  023%=      5-min Rain = 0
KBR1 172014Z 20014KT 18/M03 A3006 RMK A01 T01831028  RH  024%=      5-min Rain = 0
KBR1 172015Z 20016KT 18/M03 A3006 RMK A01 T01821032  RH  023%=      5-min Rain = 0
KBR1 172016Z 21013KT 18/M04 A3006 RMK A01 T01771036  RH  023%=      5-min Rain = 0
KBR1 172017Z 21011KT 18/M03 A3006 RMK A01 T01751034  RH  024%=      5-min Rain = 0
KBR1 172018Z 20011KT 18/M03 A3006 RMK A01 T01751032  RH  024%=      5-min Rain = 0
KBR1 172019Z 19012KT 18/M03 A3006 RMK A01 T01751032  RH  024%=      5-min Rain = 0
KBR1 172020Z 21014KT 18/M03 A3006 RMK A01 T01761032  RH  024%=      5-min Rain = 0
KBR1 172021Z 23014KT 18/M04 A3006 RMK A01 T01761036  RH  023%=      5-min Rain = 0
KBR1 172022Z 22013KT 18/M04 A3006 RMK A01 T01761038  RH  023%=      5-min Rain = 0
KBR1 172023Z 22010KT 18/M04 A3006 RMK A01 T01771041  RH  022%=      5-min Rain = 0
KBR1 172024Z 21011KT 18/M04 A3005 RMK A01 T01771040  RH  022%=      5-min Rain = 0
KBR1 172025Z 21013KT 18/M04 A3005 RMK A01 T01791041  RH  022%=      5-min Rain = 0
KBR1 172026Z 21012KT 18/M04 A3005 RMK A01 T01801042  RH  022%=      5-min Rain = 0
KBR1 172027Z 21012KT 18/M04 A3005 RMK A01 T01811041  RH  022%=      5-min Rain = 0
KBR1 172028Z 22013KT 18/M04 A3005 RMK A01 T01821042  RH  021%=      5-min Rain = 0
KBR1 172029Z 23012KT 18/M04 A3005 RMK A01 T01811041  RH  022%=      5-min Rain = 0
KBR1 172030Z 23012KT 18/M04 A3005 RMK A01 T01791042  RH  022%=      5-min Rain = 0
KBR1 172031Z 22011KT 18/M04 A3005 RMK A01 T01781042  RH  022%=      5-min Rain = 0
KBR1 172032Z 22009KT 18/M04 A3005 RMK A01 T01771041  RH  022%=      5-min Rain = 0
KBR1 172033Z 20009KT 18/M04 A3005 RMK A01 T01781039  RH  022%=      5-min Rain = 0
KBR1 172034Z 21010KT 18/M04 A3005 RMK A01 T01791040  RH  022%=      5-min Rain = 0
KBR1 172035Z 20011KT 18/M04 A3005 RMK A01 T01791038  RH  022%=      5-min Rain = 0
KBR1 172036Z 20012KT 18/M04 A3005 RMK A01 T01811040  RH  022%=      5-min Rain = 0
KBR1 172037Z 20009KT 18/M04 A3005 RMK A01 T01811041  RH  022%=      5-min Rain = 0
KBR1 172038Z 22010KT 18/M04 A3005 RMK A01 T01811039  RH  022%=      5-min Rain = 0
KBR1 172039Z 22014KT 18/M04 A3005 RMK A01 T01821036  RH  022%=      5-min Rain = 0
KBR1 172040Z 24012KT 18/M04 A3005 RMK A01 T01811038  RH  022%=      5-min Rain = 0
KBR1 172041Z 23010KT 18/M04 A3005 RMK A01 T01791038  RH  023%=      5-min Rain = 0
KBR1 172042Z 21013KT 18/M04 A3005 RMK A01 T01801038  RH  023%=      5-min Rain = 0
KBR1 172043Z 20011KT 18/M04 A3005 RMK A01 T01811040  RH  022%=      5-min Rain = 0
KBR1 172044Z 20011KT 18/M04 A3005 RMK A01 T01821040  RH  022%=      5-min Rain = 0
KBR1 172045Z 21013KT 18/M04 A3005 RMK A01 T01831038  RH  022%=      5-min Rain = 0
KBR1 172046Z 21014KT 18/M04 A3005 RMK A01 T01841038  RH  022%=      5-min Rain = 0
KBR1 172047Z 20011KT 18/M04 A3004 RMK A01 T01831038  RH  022%=      5-min Rain = 0
KBR1 172048Z 20009KT 18/M04 A3004 RMK A01 T01841035  RH  022%=      5-min Rain = 0
KBR1 172049Z 22009KT 19/M03 A3004 RMK A01 T01871034  RH  022%=      5-min Rain = 0
KBR1 172050Z 22009KT 19/M04 A3004 RMK A01 T01871038  RH  021%=      5-min Rain = 0
KBR1 172051Z 20011KT 19/M04 A3004 RMK A01 T01861036  RH  022%=      5-min Rain = 0
KBR1 172052Z 20011KT 19/M04 A3004 RMK A01 T01861037  RH  022%=      5-min Rain = 0
KBR1 172053Z 20012KT 19/M04 A3004 RMK A01 T01861038  RH  022%=      5-min Rain = 0
KBR1 172054Z 22010KT 19/M04 A3004 RMK A01 T01861036  RH  022%=      5-min Rain = 0
KBR1 172055Z 22009KT 19/M04 A3004 RMK A01 T01871036  RH  022%=      5-min Rain = 0
KBR1 172056Z 22010G15KT 19/M04 A3004 RMK A01 T01871037  RH  022%=      5-min Rain = 0
KBR1 172057Z 21015KT 19/M04 A3004 RMK A01 T01851037  RH  022%=      5-min Rain = 0
KBR1 172058Z 21012KT 19/M04 A3004 RMK A01 T01861037  RH  022%=      5-min Rain = 0
KBR1 172059Z 20014KT 19/M04 A3004 RMK A01 T01851038  RH  022%=      5-min Rain = 0
KBR1 172100Z 22010KT 18/M04 A3004 RMK A01 T01831038  RH  022%=      5-min Rain = 0
KBR1 172101Z 21011KT 18/M04 A3004 RMK A01 T01821039  RH  022%=      5-min Rain = 0
KBR1 172102Z 20009KT 18/M04 A3004 RMK A01 T01831039  RH  022%=      5-min Rain = 0
KBR1 172103Z 22012G18KT 19/M04 A3004 RMK A01 T01851038  RH  022%=      5-min Rain = 0
KBR1 172104Z 22012KT 19/M04 A3004 RMK A01 T01871044  RH  021%=      5-min Rain = 0
KBR1 172105Z 20012KT 19/M04 A3004 RMK A01 T01871043  RH  021%=      5-min Rain = 0
KBR1 172106Z 21011KT 19/M04 A3004 RMK A01 T01861043  RH  021%=      5-min Rain = 0
KBR1 172107Z 21010KT 19/M04 A3004 RMK A01 T01851043  RH  021%=      5-min Rain = 0
KBR1 172108Z 20013KT 19/M04 A3004 RMK A01 T01851042  RH  021%=      5-min Rain = 0
KBR1 172109Z 20013KT 19/M04 A3004 RMK A01 T01861043  RH  021%=      5-min Rain = 0
KBR1 172110Z 19014KT 19/M04 A3003 RMK A01 T01861041  RH  021%=      5-min Rain = 0
KBR1 172111Z 20013KT 19/M04 A3003 RMK A01 T01861039  RH  021%=      5-min Rain = 0
KBR1 172112Z 22011KT 19/M04 A3004 RMK A01 T01851038  RH  022%=      5-min Rain = 0
KBR1 172113Z 20011KT 19/M04 A3004 RMK A01 T01861037  RH  022%=      5-min Rain = 0
KBR1 172114Z 20010KT 19/M04 A3004 RMK A01 T01871038  RH  021%=      5-min Rain = 0
KBR1 172115Z 20014KT 19/M04 A3003 RMK A01 T01861040  RH  021%=      5-min Rain = 0
KBR1 172116Z 20011KT 19/M04 A3004 RMK A01 T01851040  RH  021%=      5-min Rain = 0
KBR1 172117Z 21012G17KT 19/M04 A3004 RMK A01 T01871036  RH  022%=      5-min Rain = 0
KBR1 172118Z 22014KT 19/M04 A3003 RMK A01 T01901041  RH  021%=      5-min Rain = 0
KBR1 172119Z 20015KT 19/M04 A3003 RMK A01 T01901044  RH  020%=      5-min Rain = 0
KBR1 172120Z 20013KT 19/M04 A3003 RMK A01 T01891043  RH  020%=      5-min Rain = 0
KBR1 172121Z 20015KT 19/M04 A3003 RMK A01 T01891042  RH  021%=      5-min Rain = 0
KBR1 172122Z 22016KT 19/M04 A3003 RMK A01 T01901040  RH  021%=      5-min Rain = 0
KBR1 172123Z 21015KT 19/M04 A3003 RMK A01 T01891041  RH  021%=      5-min Rain = 0
KBR1 172124Z 21015KT 19/M04 A3003 RMK A01 T01881041  RH  021%=      5-min Rain = 0
KBR1 172125Z 21014KT 19/M04 A3003 RMK A01 T01871042  RH  021%=      5-min Rain = 0
KBR1 172126Z 20014KT 19/M04 A3003 RMK A01 T01871043  RH  021%=      5-min Rain = 0
KBR1 172127Z 19013KT 19/M05 A3003 RMK A01 T01881045  RH  020%=      5-min Rain = 0
KBR1 172128Z 20015KT 19/M05 A3003 RMK A01 T01881045  RH  020%=      5-min Rain = 0
KBR1 172129Z 19015KT 19/M04 A3003 RMK A01 T01891044  RH  020%=      5-min Rain = 0
KBR1 172130Z 20016KT 19/M05 A3003 RMK A01 T01891045  RH  020%=      5-min Rain = 0
KBR1 172131Z 20014KT 19/M05 A3003 RMK A01 T01891046  RH  020%=      5-min Rain = 0
KBR1 172132Z 20013KT 19/M05 A3003 RMK A01 T01911046  RH  020%=      5-min Rain = 0
KBR1 172133Z 22012KT 19/M05 A3003 RMK A01 T01911046  RH  020%=      5-min Rain = 0
KBR1 172134Z 21015KT 19/M05 A3003 RMK A01 T01911045  RH  020%=      5-min Rain = 0
KBR1 172135Z 19015KT 19/M05 A3003 RMK A01 T01911048  RH  019%=      5-min Rain = 0
KBR1 172136Z 20014KT 19/M05 A3003 RMK A01 T01901047  RH  020%=      5-min Rain = 0
KBR1 172137Z 21015KT 19/M05 A3002 RMK A01 T01901046  RH  020%=      5-min Rain = 0
KBR1 172138Z 20013KT 19/M05 A3003 RMK A01 T01891046  RH  020%=      5-min Rain = 0
KBR1 172139Z 20015KT 19/M05 A3002 RMK A01 T01901045  RH  020%=      5-min Rain = 0
KBR1 172140Z 21014KT 19/M05 A3002 RMK A01 T01921046  RH  020%=      5-min Rain = 0
KBR1 172141Z 21015KT 19/M05 A3002 RMK A01 T01911047  RH  020%=      5-min Rain = 0
KBR1 172142Z 20016KT 19/M05 A3002 RMK A01 T01911046  RH  020%=      5-min Rain = 0
KBR1 172143Z 21015KT 19/M05 A3002 RMK A01 T01911045  RH  020%=      5-min Rain = 0
KBR1 172144Z 21017KT 19/M05 A3002 RMK A01 T01911045  RH  020%=      5-min Rain = 0
KBR1 172145Z 21015KT 19/M05 A3002 RMK A01 T01901046  RH  020%=      5-min Rain = 0
KBR1 172146Z 21016KT 19/M05 A3002 RMK A01 T01901045  RH  020%=      5-min Rain = 0
KBR1 172147Z 22015KT 19/M05 A3002 RMK A01 T01911045  RH  020%=      5-min Rain = 0
KBR1 172148Z 22018KT 19/M04 A3002 RMK A01 T01921044  RH  020%=      5-min Rain = 0
KBR1 172149Z 22016KT 19/M05 A3002 RMK A01 T01911045  RH  020%=      5-min Rain = 0
KBR1 172150Z 22014KT 19/M04 A3002 RMK A01 T01901043  RH  020%=      5-min Rain = 0
KBR1 172151Z 22017KT 19/M04 A3002 RMK A01 T01921042  RH  020%=      5-min Rain = 0
KBR1 172152Z 23016KT 19/M04 A3002 RMK A01 T01911043  RH  020%=      5-min Rain = 0
KBR1 172153Z 22014KT 19/M04 A3002 RMK A01 T01901044  RH  020%=      5-min Rain = 0
KBR1 172154Z 21015KT 19/M04 A3002 RMK A01 T01901042  RH  020%=      5-min Rain = 0
KBR1 172155Z 21014KT 19/M04 A3002 RMK A01 T01901044  RH  020%=      5-min Rain = 0
KBR1 172156Z 21013KT 19/M04 A3002 RMK A01 T01911043  RH  020%=      5-min Rain = 0
KBR1 172157Z 21015KT 19/M04 A3002 RMK A01 T01911042  RH  020%=      5-min Rain = 0
KBR1 172158Z 22016KT 19/M04 A3002 RMK A01 T01921042  RH  020%=      5-min Rain = 0
KBR1 172159Z 21015KT 19/M04 A3002 RMK A01 T01931043  RH  020%=      5-min Rain = 0
KBR1 172200Z 22014KT 19/M04 A3002 RMK A01 T01921042  RH  020%=      5-min Rain = 0
KBR1 172201Z 22016KT 19/M04 A3002 RMK A01 T01931043  RH  020%=      5-min Rain = 0
KBR1 172202Z 23015KT 19/M04 A3002 RMK A01 T01931043  RH  020%=      5-min Rain = 0
KBR1 172203Z 22015KT 19/M04 A3002 RMK A01 T01921044  RH  020%=      5-min Rain = 0
KBR1 172204Z 21013KT 19/M04 A3002 RMK A01 T01931042  RH  020%=      5-min Rain = 0
KBR1 172205Z 21011KT 19/M04 A3002 RMK A01 T01931042  RH  020%=      5-min Rain = 0
KBR1 172206Z 22009KT 19/M04 A3002 RMK A01 T01941040  RH  020%=      5-min Rain = 0
KBR1 172207Z 22011KT 20/M04 A3002 RMK A01 T01951040  RH  020%=      5-min Rain = 0
KBR1 172208Z 22015KT 20/M04 A3001 RMK A01 T01961042  RH  020%=      5-min Rain = 0
KBR1 172209Z 22013KT 20/M04 A3001 RMK A01 T01961043  RH  020%=      5-min Rain = 0
KBR1 172210Z 22012KT 20/M04 A3001 RMK A01 T01951042  RH  020%=      5-min Rain = 0
KBR1 172211Z 22013KT 20/M04 A3001 RMK A01 T01961041  RH  020%=      5-min Rain = 0
KBR1 172212Z 23012KT 20/M04 A3001 RMK A01 T01961041  RH  020%=      5-min Rain = 0
KBR1 172213Z 23015KT 20/M04 A3001 RMK A01 T01951042  RH  020%=      5-min Rain = 0
KBR1 172214Z 23015KT 19/M04 A3001 RMK A01 T01941042  RH  020%=      5-min Rain = 0
KBR1 172215Z 23013KT 19/M04 A3001 RMK A01 T01941040  RH  020%=      5-min Rain = 0
KBR1 172216Z 24017KT 20/M04 A3001 RMK A01 T01951040  RH  020%=      5-min Rain = 0
KBR1 172217Z 23015KT 20/M04 A3001 RMK A01 T01951041  RH  020%=      5-min Rain = 0
KBR1 172218Z 23015KT 20/M04 A3001 RMK A01 T01951040  RH  020%=      5-min Rain = 0
KBR1 172219Z 22014KT 20/M04 A3001 RMK A01 T01951042  RH  020%=      5-min Rain = 0
KBR1 172220Z 21012KT 19/M04 A3001 RMK A01 T01941041  RH  020%=      5-min Rain = 0
KBR1 172221Z 21012KT 20/M04 A3001 RMK A01 T01951038  RH  020%=      5-min Rain = 0
KBR1 172222Z 22015KT 20/M04 A3001 RMK A01 T01961038  RH  020%=      5-min Rain = 0
KBR1 172223Z 22014KT 20/M04 A3001 RMK A01 T01961039  RH  020%=      5-min Rain = 0
KBR1 172224Z 22015KT 20/M04 A3001 RMK A01 T01961039  RH  020%=      5-min Rain = 0
KBR1 172225Z 21015KT 20/M04 A3001 RMK A01 T01961043  RH  020%=      5-min Rain = 0
KBR1 172226Z 22017KT 20/M04 A3001 RMK A01 T01961044  RH  019%=      5-min Rain = 0
KBR1 172227Z 23015KT 20/M05 A3001 RMK A01 T01971047  RH  019%=      5-min Rain = 0
KBR1 172228Z 22014KT 20/M05 A3001 RMK A01 T01961046  RH  019%=      5-min Rain = 0
KBR1 172229Z 23012KT 20/M05 A3001 RMK A01 T01961046  RH  019%=      5-min Rain = 0
KBR1 172230Z 22013KT 20/M05 A3001 RMK A01 T01961045  RH  019%=      5-min Rain = 0
KBR1 172231Z 23013KT 20/M04 A3001 RMK A01 T01961044  RH  019%=      5-min Rain = 0
KBR1 172232Z 23015KT 20/M05 A3001 RMK A01 T01971047  RH  019%=      5-min Rain = 0
KBR1 172233Z 24016KT 20/M05 A3001 RMK A01 T01981046  RH  019%=      5-min Rain = 0
KBR1 172234Z 23016KT 20/M05 A3001 RMK A01 T01971052  RH  018%=      5-min Rain = 0
KBR1 172235Z 23015KT 20/M06 A3001 RMK A01 T01971055  RH  018%=      5-min Rain = 0
KBR1 172236Z 22017KT 20/M06 A3001 RMK A01 T01971055  RH  018%=      5-min Rain = 0
KBR1 172237Z 23017KT 20/M06 A3001 RMK A01 T01971056  RH  018%=      5-min Rain = 0
KBR1 172238Z 22016KT 20/M06 A3001 RMK A01 T01961056  RH  018%=      5-min Rain = 0
KBR1 172239Z 22016KT 20/M06 A3001 RMK A01 T01961055  RH  018%=      5-min Rain = 0
KBR1 172240Z 23016G21KT 20/M06 A3001 RMK A01 T01961056  RH  018%=      5-min Rain = 0
KBR1 172241Z 23015KT 20/M06 A3001 RMK A01 T01961058  RH  017%=      5-min Rain = 0
KBR1 172242Z 23016KT 20/M06 A3001 RMK A01 T01961056  RH  018%=      5-min Rain = 0
KBR1 172243Z 23018KT 20/M06 A3001 RMK A01 T01961058  RH  017%=      5-min Rain = 0
KBR1 172244Z 23017KT 20/M06 A3001 RMK A01 T01951058  RH  018%=      5-min Rain = 0
KBR1 172245Z 24014KT 20/M06 A3001 RMK A01 T01951058  RH  018%=      5-min Rain = 0
KBR1 172246Z 24016KT 20/M06 A3001 RMK A01 T01951055  RH  018%=      5-min Rain = 0
KBR1 172247Z 23015KT 19/M06 A3001 RMK A01 T01941055  RH  018%=      5-min Rain = 0
KBR1 172248Z 24013KT 19/M06 A3001 RMK A01 T01941055  RH  018%=      5-min Rain = 0
KBR1 172249Z 23014KT 19/M05 A3001 RMK A01 T01941054  RH  018%=      5-min Rain = 0
KBR1 172250Z 24015KT 19/M05 A3001 RMK A01 T01941054  RH  018%=      5-min Rain = 0
KBR1 172251Z 23016KT 19/M05 A3001 RMK A01 T01941053  RH  018%=      5-min Rain = 0
KBR1 172252Z 23017KT 19/M05 A3001 RMK A01 T01941053  RH  018%=      5-min Rain = 0
KBR1 172253Z 23017KT 19/M05 A3001 RMK A01 T01931053  RH  018%=      5-min Rain = 0
KBR1 172254Z 23015KT 19/M05 A3001 RMK A01 T01931052  RH  019%=      5-min Rain = 0
KBR1 172255Z 23014KT 19/M05 A3001 RMK A01 T01921051  RH  019%=      5-min Rain = 0
KBR1 172256Z 23016KT 19/M05 A3001 RMK A01 T01921050  RH  019%=      5-min Rain = 0
KBR1 172257Z 23016KT 19/M05 A3001 RMK A01 T01921051  RH  019%=      5-min Rain = 0
KBR1 172258Z 23014KT 19/M05 A3001 RMK A01 T01921051  RH  019%=      5-min Rain = 0
KBR1 172259Z 23018KT 19/M05 A3001 RMK A01 T01921051  RH  019%=      5-min Rain = 0
KBR1 172300Z 22014KT 19/M05 A30 RMK A01 T01911051  RH  019%=      5-min Rain = 0
KBR1 172301Z 22015KT 19/M05 A30 RMK A01 T01911050  RH  019%=      5-min Rain = 0
KBR1 172302Z 22014KT 19/M05 A30 RMK A01 T01911050  RH  019%=      5-min Rain = 0
KBR1 172303Z 22013KT 19/M05 A30 RMK A01 T01911049  RH  019%=      5-min Rain = 0
KBR1 172304Z 23013KT 19/M05 A30 RMK A01 T01911048  RH  019%=      5-min Rain = 0
KBR1 172305Z 23012KT 19/M05 A30 RMK A01 T01911049  RH  019%=      5-min Rain = 0
KBR1 172306Z 23014KT 19/M05 A30 RMK A01 T01911048  RH  019%=      5-min Rain = 0
KBR1 172307Z 23014KT 19/M05 A30 RMK A01 T01901049  RH  019%=      5-min Rain = 0
KBR1 172308Z 23014KT 19/M05 A30 RMK A01 T01901049  RH  019%=      5-min Rain = 0
KBR1 172309Z 23013KT 19/M05 A30 RMK A01 T01901048  RH  019%=      5-min Rain = 0
KBR1 172310Z 22015KT 19/M05 A30 RMK A01 T01891049  RH  019%=      5-min Rain = 0
KBR1 172311Z 22015KT 19/M05 A30 RMK A01 T01881050  RH  019%=      5-min Rain = 0
KBR1 172312Z 22015KT 19/M05 A30 RMK A01 T01881050  RH  020%=      5-min Rain = 0
KBR1 172313Z 22013KT 19/M05 A30 RMK A01 T01871051  RH  020%=      5-min Rain = 0
KBR1 172314Z 22014KT 19/M05 A30 RMK A01 T01871050  RH  020%=      5-min Rain = 0
KBR1 172315Z 22012KT 19/M05 A30 RMK A01 T01861049  RH  020%=      5-min Rain = 0
KBR1 172316Z 22013KT 19/M05 A30 RMK A01 T01851049  RH  020%=      5-min Rain = 0
KBR1 172317Z 22012KT 19/M05 A30 RMK A01 T01851048  RH  020%=      5-min Rain = 0
KBR1 172318Z 22013KT 19/M05 A30 RMK A01 T01851048  RH  020%=      5-min Rain = 0
KBR1 172319Z 23012KT 18/M05 A30 RMK A01 T01841047  RH  020%=      5-min Rain = 0
KBR1 172320Z 22012KT 18/M05 A30 RMK A01 T01831047  RH  021%=      5-min Rain = 0
KBR1 172321Z 23014KT 18/M05 A30 RMK A01 T01831046  RH  021%=      5-min Rain = 0
KBR1 172322Z 23015KT 18/M05 A30 RMK A01 T01831046  RH  021%=      5-min Rain = 0
KBR1 172323Z 22013KT 18/M05 A30 RMK A01 T01821046  RH  021%=      5-min Rain = 0
KBR1 172324Z 22012KT 18/M05 A30 RMK A01 T01811045  RH  021%=      5-min Rain = 0
KBR1 172325Z 22012KT 18/M04 A30 RMK A01 T01801044  RH  021%=      5-min Rain = 0
KBR1 172326Z 23012KT 18/M04 A30 RMK A01 T01791043  RH  022%=      5-min Rain = 0
KBR1 172327Z 22012KT 18/M04 A30 RMK A01 T01791043  RH  022%=      5-min Rain = 0
KBR1 172328Z 22012KT 18/M04 A2999 RMK A01 T01791042  RH  022%=      5-min Rain = 0
KBR1 172329Z 23013KT 18/M04 A2999 RMK A01 T01781042  RH  022%=      5-min Rain = 0
KBR1 172330Z 22013KT 18/M04 A2999 RMK A01 T01771043  RH  022%=      5-min Rain = 0
KBR1 172331Z 22013KT 18/M04 A2999 RMK A01 T01771043  RH  022%=      5-min Rain = 0
KBR1 172332Z 22013KT 18/M04 A2999 RMK A01 T01771043  RH  022%=      5-min Rain = 0
KBR1 172333Z 22014KT 18/M04 A2999 RMK A01 T01761043  RH  022%=      5-min Rain = 0
KBR1 172334Z 22013KT 18/M04 A2999 RMK A01 T01761042  RH  022%=      5-min Rain = 0
KBR1 172335Z 22012KT 18/M04 A2999 RMK A01 T01751042  RH  022%=      5-min Rain = 0
KBR1 172336Z 22012KT 17/M04 A2999 RMK A01 T01741041  RH  023%=      5-min Rain = 0
KBR1 172337Z 22012KT 17/M04 A2999 RMK A01 T01721041  RH  023%=      5-min Rain = 0
KBR1 172338Z 23011KT 17/M04 A2999 RMK A01 T01721041  RH  023%=      5-min Rain = 0
KBR1 172339Z 23012KT 17/M04 A2999 RMK A01 T01711041  RH  023%=      5-min Rain = 0
KBR1 172340Z 22012KT 17/M04 A2999 RMK A01 T01701041  RH  023%=      5-min Rain = 0
KBR1 172341Z 22011KT 17/M04 A2999 RMK A01 T01691040  RH  024%=      5-min Rain = 0
KBR1 172342Z 22011KT 17/M04 A2999 RMK A01 T01681040  RH  024%=      5-min Rain = 0
KBR1 172343Z 22012KT 17/M04 A2999 RMK A01 T01671039  RH  024%=      5-min Rain = 0
KBR1 172344Z 22011KT 17/M04 A2999 RMK A01 T01661039  RH  024%=      5-min Rain = 0
KBR1 172345Z 22011KT 17/M04 A2999 RMK A01 T01661039  RH  024%=      5-min Rain = 0
KBR1 172346Z 22011KT 17/M04 A2999 RMK A01 T01651038  RH  025%=      5-min Rain = 0
KBR1 172347Z 22012KT 16/M04 A2999 RMK A01 T01641038  RH  025%=      5-min Rain = 0
KBR1 172348Z 22011KT 16/M04 A2999 RMK A01 T01641038  RH  025%=      5-min Rain = 0
KBR1 172349Z 22011KT 16/M04 A2999 RMK A01 T01631037  RH  025%=      5-min Rain = 0
KBR1 172350Z 22011KT 16/M04 A2999 RMK A01 T01611037  RH  025%=      5-min Rain = 0
KBR1 172351Z 22011KT 16/M04 A2999 RMK A01 T01601037  RH  026%=      5-min Rain = 0
KBR1 172352Z 22010KT 16/M04 A2999 RMK A01 T01591037  RH  026%=      5-min Rain = 0
KBR1 172353Z 22010KT 16/M04 A2999 RMK A01 T01571037  RH  026%=      5-min Rain = 0
KBR1 172354Z 22010KT 16/M04 A2999 RMK A01 T01551037  RH  026%=      5-min Rain = 0
KBR1 172355Z 22010KT 16/M04 A2999 RMK A01 T01551037  RH  026%=      5-min Rain = 0
KBR1 172356Z 22010KT 15/M04 A2999 RMK A01 T01541037  RH  027%=      5-min Rain = 0
KBR1 172357Z 22009KT 15/M04 A2999 RMK A01 T01531037  RH  027%=      5-min Rain = 0
KBR1 172358Z 22009KT 15/M04 A2999 RMK A01 T01501038  RH  027%=      5-min Rain = 0
KBR1 172359Z 21009KT 15/M04 A2999 RMK A01 T01481038  RH  027%=      5-min Rain = 0
KBR1 180000Z 21009KT 15/M04 A2999 RMK A01 T01461038  RH  028%=      5-min Rain = 0
KBR1 180001Z 21009KT 14/M04 A2998 RMK A01 T01441038  RH  028%=      5-min Rain = 0
KBR1 180002Z 21008KT 14/M04 A2998 RMK A01 T01431038  RH  028%=      5-min Rain = 0
KBR1 180003Z 21009KT 14/M04 A2998 RMK A01 T01411038  RH  029%=      5-min Rain = 0
KBR1 180004Z 21008KT 14/M04 A2998 RMK A01 T01391038  RH  029%=      5-min Rain = 0
KBR1 180005Z 20008KT 14/M04 A2998 RMK A01 T01381038  RH  029%=      5-min Rain = 0
KBR1 180006Z 20008KT 14/M04 A2998 RMK A01 T01361039  RH  029%=      5-min Rain = 0
KBR1 180007Z 20008KT 13/M04 A2998 RMK A01 T01341039  RH  030%=      5-min Rain = 0
KBR1 180008Z 21008KT 13/M04 A2998 RMK A01 T01331039  RH  030%=      5-min Rain = 0
KBR1 180009Z 21009KT 13/M04 A2999 RMK A01 T01311039  RH  030%=      5-min Rain = 0
KBR1 180010Z 21009KT 13/M04 A2999 RMK A01 T01301039  RH  031%=      5-min Rain = 0
KBR1 180011Z 21009KT 13/M04 A2999 RMK A01 T01281039  RH  031%=      5-min Rain = 0
KBR1 180012Z 21008KT 13/M04 A2999 RMK A01 T01271039  RH  031%=      5-min Rain = 0
KBR1 180013Z 21008KT 13/M04 A2999 RMK A01 T01251039  RH  031%=      5-min Rain = 0
KBR1 180014Z 21008KT 12/M04 A2999 RMK A01 T01241040  RH  032%=      5-min Rain = 0
KBR1 180015Z 20008KT 12/M04 A2999 RMK A01 T01221040  RH  032%=      5-min Rain = 0
KBR1 180016Z 20009KT 12/M04 A2999 RMK A01 T01201040  RH  032%=      5-min Rain = 0
KBR1 180017Z 20009KT 12/M04 A2999 RMK A01 T01191040  RH  033%=      5-min Rain = 0
KBR1 180018Z 20009KT 12/M04 A2999 RMK A01 T01171040  RH  033%=      5-min Rain = 0
KBR1 180019Z 20009KT 12/M04 A2999 RMK A01 T01151039  RH  034%=      5-min Rain = 0
KBR1 180020Z 20009KT 11/M04 A2999 RMK A01 T01141039  RH  034%=      5-min Rain = 0
KBR1 180021Z 20008KT 11/M04 A2999 RMK A01 T01141039  RH  034%=      5-min Rain = 0
KBR1 180022Z 20008KT 11/M04 A2999 RMK A01 T01141038  RH  034%=      5-min Rain = 0
KBR1 180023Z 21008KT 11/M04 A2999 RMK A01 T01131039  RH  034%=      5-min Rain = 0
KBR1 180024Z 20008KT 11/M04 A2999 RMK A01 T01121039  RH  034%=      5-min Rain = 0
KBR1 180025Z 19009KT 11/M04 A2999 RMK A01 T01121039  RH  035%=      5-min Rain = 0
KBR1 180026Z 20009KT 11/M04 A2999 RMK A01 T01111038  RH  035%=      5-min Rain = 0
KBR1 180027Z 20009KT 11/M04 A2999 RMK A01 T01101037  RH  035%=      5-min Rain = 0
KBR1 180028Z 20010KT 11/M04 A2999 RMK A01 T01121037  RH  035%=      5-min Rain = 0
KBR1 180029Z 20009KT 12/M04 A2999 RMK A01 T01151036  RH  035%=      5-min Rain = 0
KBR1 180030Z 20009KT 12/M04 A2999 RMK A01 T01161036  RH  034%=      5-min Rain = 0
KBR1 180031Z 21006KT 12/M04 A2999 RMK A01 T01151037  RH  034%=      5-min Rain = 0
KBR1 180032Z 21006KT 11/M04 A2999 RMK A01 T01131038  RH  035%=      5-min Rain = 0
KBR1 180033Z 22007KT 11/M04 A2999 RMK A01 T01141038  RH  034%=      5-min Rain = 0
KBR1 180034Z 21009KT 12/M04 A2999 RMK A01 T01171037  RH  034%=      5-min Rain = 0
KBR1 180035Z 21008KT 12/M04 A2999 RMK A01 T01181037  RH  034%=      5-min Rain = 0
KBR1 180036Z 21009KT 12/M04 A2999 RMK A01 T01181037  RH  034%=      5-min Rain = 0
KBR1 180037Z 21009KT 12/M04 A2999 RMK A01 T01181037  RH  034%=      5-min Rain = 0
KBR1 180038Z 22009KT 12/M04 A2999 RMK A01 T01181036  RH  034%=      5-min Rain = 0
KBR1 180039Z 22008KT 12/M04 A2999 RMK A01 T01181036  RH  034%=      5-min Rain = 0
KBR1 180040Z 22008KT 12/M04 A2999 RMK A01 T01181036  RH  034%=      5-min Rain = 0
KBR1 180041Z 21008KT 12/M04 A2999 RMK A01 T01161036  RH  034%=      5-min Rain = 0
KBR1 180042Z 22008KT 11/M04 A2999 RMK A01 T01141037  RH  035%=      5-min Rain = 0
KBR1 180043Z 21008KT 11/M04 A2999 RMK A01 T01121037  RH  035%=      5-min Rain = 0
KBR1 180044Z 21008KT 11/M04 A2999 RMK A01 T01111037  RH  035%=      5-min Rain = 0
KBR1 180045Z 21008KT 11/M04 A2999 RMK A01 T01101036  RH  036%=      5-min Rain = 0
KBR1 180046Z 22008KT 11/M04 A2999 RMK A01 T01091037  RH  036%=      5-min Rain = 0
KBR1 180047Z 22007KT 11/M04 A2999 RMK A01 T01071037  RH  036%=      5-min Rain = 0
KBR1 180048Z 22007KT 11/M04 A2999 RMK A01 T01061037  RH  036%=      5-min Rain = 0
KBR1 180049Z 22008KT 11/M04 A2999 RMK A01 T01051038  RH  036%=      5-min Rain = 0
KBR1 180050Z 22008KT 11/M04 A2999 RMK A01 T01051038  RH  036%=      5-min Rain = 0
KBR1 180051Z 22008KT 11/M04 A2999 RMK A01 T01051037  RH  037%=      5-min Rain = 0
KBR1 180052Z 22008KT 10/M04 A2999 RMK A01 T01041037  RH  037%=      5-min Rain = 0
KBR1 180053Z 21008KT 10/M04 A2999 RMK A01 T01031038  RH  037%=      5-min Rain = 0
KBR1 180054Z 21008KT 10/M04 A2999 RMK A01 T01031037  RH  037%=      5-min Rain = 0
KBR1 180055Z 21008KT 10/M04 A2999 RMK A01 T01021037  RH  037%=      5-min Rain = 0
KBR1 180056Z 21008KT 10/M04 A2999 RMK A01 T01021036  RH  038%=      5-min Rain = 0
KBR1 180057Z 21008KT 10/M04 A2999 RMK A01 T01021037  RH  038%=      5-min Rain = 0
KBR1 180058Z 21008KT 10/M04 A2999 RMK A01 T01021037  RH  037%=      5-min Rain = 0
KBR1 180059Z 21008KT 10/M04 A2999 RMK A01 T01021037  RH  037%=      5-min Rain = 0
KBR1 180100Z 21008KT 10/M04 A2999 RMK A01 T01031037  RH  037%=      5-min Rain = 0
KBR1 180101Z 21008KT 10/M04 A2999 RMK A01 T01031037  RH  037%=      5-min Rain = 0
KBR1 180102Z 21008KT 10/M04 A2999 RMK A01 T01031037  RH  037%=      5-min Rain = 0
KBR1 180103Z 21008KT 10/M04 A2999 RMK A01 T01031038  RH  037%=      5-min Rain = 0
KBR1 180104Z 21008KT 10/M04 A2999 RMK A01 T01031038  RH  037%=      5-min Rain = 0
KBR1 180105Z 21008KT 10/M04 A2999 RMK A01 T01021039  RH  037%=      5-min Rain = 0
KBR1 180106Z 21008KT 10/M04 A2999 RMK A01 T01021039  RH  037%=      5-min Rain = 0
KBR1 180107Z 21008KT 10/M04 A2999 RMK A01 T01031039  RH  037%=      5-min Rain = 0
KBR1 180108Z 21008KT 10/M04 A2999 RMK A01 T01031039  RH  037%=      5-min Rain = 0
KBR1 180109Z 21007KT 10/M04 A2999 RMK A01 T01031039  RH  037%=      5-min Rain = 0
KBR1 180110Z 21007KT 10/M04 A2999 RMK A01 T01021039  RH  037%=      5-min Rain = 0
KBR1 180111Z 21007KT 10/M04 A2999 RMK A01 T01011039  RH  037%=      5-min Rain = 0
KBR1 180112Z 21008KT 10/M04 A2999 RMK A01 T01001039  RH  038%=      5-min Rain = 0
KBR1 180113Z 21008KT 10/M04 A2999 RMK A01 T00991039  RH  038%=      5-min Rain = 0
KBR1 180114Z 21008KT 10/M04 A2999 RMK A01 T00991038  RH  038%=      5-min Rain = 0
KBR1 180115Z 21008KT 10/M04 A2999 RMK A01 T00991038  RH  038%=      5-min Rain = 0
KBR1 180116Z 20008KT 10/M04 A2999 RMK A01 T00971039  RH  038%=      5-min Rain = 0
KBR1 180117Z 20008KT 10/M04 A2999 RMK A01 T00971039  RH  038%=      5-min Rain = 0
KBR1 180118Z 20008KT 10/M04 A2999 RMK A01 T00971039  RH  038%=      5-min Rain = 0
KBR1 180119Z 20008KT 10/M04 A2999 RMK A01 T00961039  RH  038%=      5-min Rain = 0
KBR1 180120Z 20008KT 10/M04 A2999 RMK A01 T00961039  RH  039%=      5-min Rain = 0
KBR1 180121Z 20008KT 10/M04 A2999 RMK A01 T00961038  RH  039%=      5-min Rain = 0
KBR1 180122Z 20008KT 10/M04 A2999 RMK A01 T00951038  RH  039%=      5-min Rain = 0
KBR1 180123Z 20008KT 10/M04 A2999 RMK A01 T00951038  RH  039%=      5-min Rain = 0
KBR1 180124Z 20008KT 10/M04 A2999 RMK A01 T00951038  RH  039%=      5-min Rain = 0
KBR1 180125Z 20008KT 10/M04 A2999 RMK A01 T00951038  RH  039%=      5-min Rain = 0
KBR1 180126Z 20008KT 09/M04 A2999 RMK A01 T00941038  RH  039%=      5-min Rain = 0
KBR1 180127Z 20008KT 09/M04 A2999 RMK A01 T00931038  RH  039%=      5-min Rain = 0
KBR1 180128Z 20008KT 09/M04 A2999 RMK A01 T00931038  RH  040%=      5-min Rain = 0
KBR1 180129Z 20007KT 09/M04 A2999 RMK A01 T00921038  RH  040%=      5-min Rain = 0
KBR1 180130Z 20007KT 09/M04 A2999 RMK A01 T00921038  RH  040%=      5-min Rain = 0
KBR1 180131Z 20007KT 09/M04 A2999 RMK A01 T00911038  RH  040%=      5-min Rain = 0
KBR1 180132Z 20006KT 09/M04 A2999 RMK A01 T00911038  RH  040%=      5-min Rain = 0
KBR1 180133Z 20006KT 09/M04 A2999 RMK A01 T00901039  RH  040%=      5-min Rain = 0
KBR1 180134Z 20006KT 09/M04 A2999 RMK A01 T00891039  RH  040%=      5-min Rain = 0
KBR1 180135Z 21006KT 09/M04 A2999 RMK A01 T00881039  RH  040%=      5-min Rain = 0
KBR1 180136Z 21005KT 09/M04 A2999 RMK A01 T00881039  RH  040%=      5-min Rain = 0
KBR1 180137Z 20005KT 09/M04 A2999 RMK A01 T00871040  RH  040%=      5-min Rain = 0
KBR1 180138Z 21006KT 09/M04 A2999 RMK A01 T00861040  RH  041%=      5-min Rain = 0
KBR1 180139Z 21006KT 09/M04 A2999 RMK A01 T00861040  RH  041%=      5-min Rain = 0
KBR1 180140Z 21005KT 09/M04 A2999 RMK A01 T00861040  RH  041%=      5-min Rain = 0
KBR1 180141Z 21005KT 09/M04 A2999 RMK A01 T00861041  RH  041%=      5-min Rain = 0
KBR1 180142Z 20005KT 09/M04 A2999 RMK A01 T00851040  RH  041%=      5-min Rain = 0
KBR1 180143Z 21006KT 08/M04 A2999 RMK A01 T00841041  RH  041%=      5-min Rain = 0
KBR1 180144Z 21005KT 08/M04 A2999 RMK A01 T00831041  RH  041%=      5-min Rain = 0
KBR1 180145Z 21005KT 08/M04 A2999 RMK A01 T00811042  RH  042%=      5-min Rain = 0
KBR1 180146Z 21005KT 08/M04 A2999 RMK A01 T00811041  RH  042%=      5-min Rain = 0
KBR1 180147Z 21005KT 08/M04 A30 RMK A01 T00791041  RH  042%=      5-min Rain = 0
KBR1 180148Z 20005KT 08/M04 A30 RMK A01 T00781041  RH  043%=      5-min Rain = 0
KBR1 180149Z 21005KT 08/M04 A30 RMK A01 T00771041  RH  043%=      5-min Rain = 0
KBR1 180150Z 20006KT 08/M04 A30 RMK A01 T00751041  RH  043%=      5-min Rain = 0
KBR1 180151Z 19007KT 07/M04 A30 RMK A01 T00721041  RH  044%=      5-min Rain = 0
KBR1 180152Z 20007KT 07/M04 A30 RMK A01 T00701040  RH  045%=      5-min Rain = 0
KBR1 180153Z 21006KT 07/M04 A30 RMK A01 T00711038  RH  046%=      5-min Rain = 0
KBR1 180154Z 21006KT 07/M04 A30 RMK A01 T00731037  RH  045%=      5-min Rain = 0
KBR1 180155Z 20007KT 08/M04 A30 RMK A01 T00751037  RH  045%=      5-min Rain = 0
KBR1 180156Z 21007KT 07/M04 A30 RMK A01 T00741038  RH  045%=      5-min Rain = 0
KBR1 180157Z 23007KT 08/M04 A30 RMK A01 T00751038  RH  044%=      5-min Rain = 0
KBR1 180158Z 22005KT 08/M04 A30 RMK A01 T00791038  RH  043%=      5-min Rain = 0
KBR1 180159Z 22006KT 08/M04 A30 RMK A01 T00811040  RH  042%=      5-min Rain = 0
KBR1 180200Z 22007KT 08/M04 A30 RMK A01 T00811040  RH  042%=      5-min Rain = 0
KBR1 180201Z 22007KT 08/M04 A30 RMK A01 T00811040  RH  042%=      5-min Rain = 0
KBR1 180202Z 23007KT 08/M04 A30 RMK A01 T00811041  RH  042%=      5-min Rain = 0
KBR1 180203Z 23007KT 08/M04 A30 RMK A01 T00791043  RH  042%=      5-min Rain = 0
KBR1 180204Z 22007KT 08/M04 A30 RMK A01 T00771043  RH  042%=      5-min Rain = 0
KBR1 180205Z 22007KT 08/M04 A30 RMK A01 T00761042  RH  043%=      5-min Rain = 0
KBR1 180206Z 22007KT 08/M04 A30 RMK A01 T00761042  RH  043%=      5-min Rain = 0
KBR1 180207Z 21006KT 08/M04 A30 RMK A01 T00761041  RH  043%=      5-min Rain = 0
KBR1 180208Z 21006KT 07/M04 A30 RMK A01 T00741042  RH  044%=      5-min Rain = 0
KBR1 180209Z 21006KT 07/M04 A30 RMK A01 T00731042  RH  044%=      5-min Rain = 0
KBR1 180210Z 21006KT 07/M04 A30 RMK A01 T00731042  RH  044%=      5-min Rain = 0
KBR1 180211Z 20007KT 07/M04 A30 RMK A01 T00731041  RH  044%=      5-min Rain = 0
KBR1 180212Z 20007KT 07/M04 A30 RMK A01 T00711042  RH  044%=      5-min Rain = 0
KBR1 180213Z 20008KT 07/M04 A30 RMK A01 T00691041  RH  045%=      5-min Rain = 0
KBR1 180214Z 21007KT 07/M04 A30 RMK A01 T00701039  RH  046%=      5-min Rain = 0
KBR1 180215Z 20007KT 07/M04 A30 RMK A01 T00711039  RH  046%=      5-min Rain = 0
KBR1 180216Z 21007KT 07/M04 A30 RMK A01 T00721038  RH  045%=      5-min Rain = 0
KBR1 180217Z 21007KT 07/M04 A2999 RMK A01 T00731038  RH  045%=      5-min Rain = 0
KBR1 180218Z 21006KT 07/M04 A2999 RMK A01 T00731039  RH  045%=      5-min Rain = 0
KBR1 180219Z 21006KT 07/M04 A2999 RMK A01 T00731039  RH  045%=      5-min Rain = 0
KBR1 180220Z 21006KT 07/M04 A2999 RMK A01 T00731039  RH  045%=      5-min Rain = 0
KBR1 180221Z 21006KT 07/M04 A2999 RMK A01 T00731039  RH  045%=      5-min Rain = 0
KBR1 180222Z 21006KT 07/M04 A2999 RMK A01 T00731040  RH  045%=      5-min Rain = 0
KBR1 180223Z 21006KT 07/M04 A2999 RMK A01 T00721040  RH  045%=      5-min Rain = 0
KBR1 180224Z 21007KT 07/M04 A2999 RMK A01 T00721040  RH  045%=      5-min Rain = 0
KBR1 180225Z 22008KT 07/M04 A2999 RMK A01 T00721040  RH  045%=      5-min Rain = 0
KBR1 180226Z 22008KT 07/M04 A2999 RMK A01 T00731041  RH  044%=      5-min Rain = 0
KBR1 180227Z 22008KT 07/M04 A2999 RMK A01 T00741041  RH  044%=      5-min Rain = 0
KBR1 180228Z 22008KT 07/M04 A2999 RMK A01 T00741041  RH  044%=      5-min Rain = 0
KBR1 180229Z 22008KT 07/M04 A2999 RMK A01 T00741042  RH  044%=      5-min Rain = 0
KBR1 180230Z 22008KT 07/M04 A2999 RMK A01 T00741041  RH  044%=      5-min Rain = 0
KBR1 180231Z 23008KT 07/M04 A2999 RMK A01 T00731041  RH  044%=      5-min Rain = 0
KBR1 180232Z 23008KT 07/M04 A2999 RMK A01 T00731041  RH  044%=      5-min Rain = 0
KBR1 180233Z 23007KT 07/M04 A2999 RMK A01 T00721042  RH  044%=      5-min Rain = 0
KBR1 180234Z 22007KT 07/M04 A2999 RMK A01 T00701042  RH  045%=      5-min Rain = 0
KBR1 180235Z 23007KT 07/M04 A2999 RMK A01 T00691042  RH  045%=      5-min Rain = 0
KBR1 180236Z 23006KT 07/M04 A2999 RMK A01 T00691042  RH  045%=      5-min Rain = 0
KBR1 180237Z 23006KT 07/M04 A2999 RMK A01 T00681043  RH  045%=      5-min Rain = 0
KBR1 180238Z 23006KT 07/M04 A2999 RMK A01 T00681043  RH  045%=      5-min Rain = 0
KBR1 180239Z 23006KT 07/M04 A2999 RMK A01 T00711043  RH  044%=      5-min Rain = 0
KBR1 180240Z 23006KT 07/M04 A2999 RMK A01 T00721043  RH  044%=      5-min Rain = 0
KBR1 180241Z 23006KT 07/M04 A2999 RMK A01 T00711044  RH  044%=      5-min Rain = 0
KBR1 180242Z 23006KT 07/M05 A2999 RMK A01 T00691045  RH  044%=      5-min Rain = 0
KBR1 180243Z 23007KT 07/M05 A2999 RMK A01 T00681045  RH  044%=      5-min Rain = 0
KBR1 180244Z 23007KT 07/M05 A2999 RMK A01 T00671045  RH  045%=      5-min Rain = 0
KBR1 180245Z 23007KT 07/M05 A2999 RMK A01 T00661045  RH  045%=      5-min Rain = 0
KBR1 180246Z 23007KT 07/M05 A2999 RMK A01 T00671045  RH  045%=      5-min Rain = 0
KBR1 180247Z 23007KT 07/M05 A2999 RMK A01 T00671045  RH  045%=      5-min Rain = 0
KBR1 180248Z 22007KT 07/M05 A2999 RMK A01 T00661045  RH  045%=      5-min Rain = 0
KBR1 180249Z 22008KT 07/M05 A2999 RMK A01 T00661045  RH  045%=      5-min Rain = 0
KBR1 180250Z 22008KT 07/M04 A2999 RMK A01 T00671043  RH  045%=      5-min Rain = 0
KBR1 180251Z 22008KT 07/M04 A2999 RMK A01 T00681042  RH  045%=      5-min Rain = 0
KBR1 180252Z 21008KT 07/M04 A2999 RMK A01 T00691041  RH  045%=      5-min Rain = 0
KBR1 180253Z 22008KT 07/M04 A2999 RMK A01 T00691040  RH  046%=      5-min Rain = 0
KBR1 180254Z 22009KT 07/M04 A2999 RMK A01 T00691041  RH  046%=      5-min Rain = 0
KBR1 180255Z 22009KT 07/M04 A2999 RMK A01 T00691041  RH  046%=      5-min Rain = 0
KBR1 180256Z 22009KT 07/M04 A2999 RMK A01 T00691040  RH  046%=      5-min Rain = 0
KBR1 180257Z 22009KT 07/M04 A2999 RMK A01 T00671040  RH  046%=      5-min Rain = 0
KBR1 180258Z 22008KT 07/M04 A2998 RMK A01 T00671039  RH  047%=      5-min Rain = 0
KBR1 180259Z 22009KT 07/M04 A2998 RMK A01 T00671038  RH  047%=      5-min Rain = 0
KBR1 180300Z 22008KT 07/M04 A2998 RMK A01 T00671038  RH  047%=      5-min Rain = 0
KBR1 180301Z 22009KT 07/M04 A2998 RMK A01 T00671038  RH  047%=      5-min Rain = 0
KBR1 180302Z 22008KT 07/M04 A2998 RMK A01 T00661039  RH  047%=      5-min Rain = 0
KBR1 180303Z 22008KT 07/M04 A2998 RMK A01 T00651039  RH  047%=      5-min Rain = 0
KBR1 180304Z 23008KT 06/M04 A2998 RMK A01 T00631040  RH  048%=      5-min Rain = 0
KBR1 180305Z 23007KT 06/M04 A2998 RMK A01 T00611042  RH  048%=      5-min Rain = 0
KBR1 180306Z 23007KT 06/M04 A2998 RMK A01 T00601042  RH  048%=      5-min Rain = 0
KBR1 180307Z 23007KT 06/M04 A2998 RMK A01 T00581043  RH  048%=      5-min Rain = 0
KBR1 180308Z 23007KT 06/M04 A2998 RMK A01 T00561043  RH  049%=      5-min Rain = 0
KBR1 180309Z 22007KT 06/M04 A2998 RMK A01 T00551043  RH  049%=      5-min Rain = 0
KBR1 180310Z 23007KT 05/M04 A2998 RMK A01 T00531044  RH  050%=      5-min Rain = 0
KBR1 180311Z 22007KT 05/M04 A2998 RMK A01 T00521044  RH  050%=      5-min Rain = 0
KBR1 180312Z 22007KT 05/M05 A2998 RMK A01 T00501045  RH  051%=      5-min Rain = 0
KBR1 180313Z 22007KT 05/M05 A2998 RMK A01 T00481045  RH  051%=      5-min Rain = 0
KBR1 180314Z 22007KT 05/M05 A2998 RMK A01 T00481045  RH  051%=      5-min Rain = 0
KBR1 180315Z 22007KT 05/M04 A2998 RMK A01 T00481044  RH  051%=      5-min Rain = 0
KBR1 180316Z 22007KT 05/M04 A2998 RMK A01 T00471044  RH  051%=      5-min Rain = 0
KBR1 180317Z 22007KT 05/M04 A2998 RMK A01 T00471044  RH  051%=      5-min Rain = 0
KBR1 180318Z 22007KT 05/M04 A2998 RMK A01 T00481044  RH  051%=      5-min Rain = 0
KBR1 180319Z 23006KT 05/M04 A2998 RMK A01 T00491043  RH  051%=      5-min Rain = 0
KBR1 180320Z 22006KT 05/M04 A2998 RMK A01 T00501043  RH  051%=      5-min Rain = 0
KBR1 180321Z 22006KT 05/M04 A2998 RMK A01 T00511043  RH  051%=      5-min Rain = 0
KBR1 180322Z 22006KT 05/M04 A2998 RMK A01 T00521043  RH  051%=      5-min Rain = 0
KBR1 180323Z 23005KT 05/M04 A2998 RMK A01 T00531042  RH  050%=      5-min Rain = 0
KBR1 180324Z 22005KT 05/M04 A2998 RMK A01 T00531042  RH  050%=      5-min Rain = 0
KBR1 180325Z 23005KT 05/M04 A2998 RMK A01 T00541041  RH  050%=      5-min Rain = 0
KBR1 180326Z 23006KT 05/M04 A2998 RMK A01 T00541041  RH  050%=      5-min Rain = 0
KBR1 180327Z 23005KT 06/M04 A2998 RMK A01 T00551040  RH  050%=      5-min Rain = 0
KBR1 180328Z 23005KT 06/M04 A2998 RMK A01 T00551040  RH  050%=      5-min Rain = 0
KBR1 180329Z 22005KT 06/M04 A2998 RMK A01 T00561040  RH  050%=      5-min Rain = 0
KBR1 180330Z 22005KT 06/M04 A2998 RMK A01 T00571039  RH  050%=      5-min Rain = 0
KBR1 180331Z 22005KT 06/M04 A2998 RMK A01 T00571039  RH  050%=      5-min Rain = 0
KBR1 180332Z 22005KT 06/M04 A2997 RMK A01 T00571039  RH  050%=      5-min Rain = 0
KBR1 180333Z 22005KT 06/M04 A2997 RMK A01 T00581037  RH  050%=      5-min Rain = 0
KBR1 180334Z 22005KT 06/M04 A2997 RMK A01 T00591037  RH  050%=      5-min Rain = 0
KBR1 180335Z 22006KT 06/M04 A2997 RMK A01 T00601037  RH  050%=      5-min Rain = 0
KBR1 180336Z 22006KT 06/M04 A2997 RMK A01 T00601037  RH  050%=      5-min Rain = 0
KBR1 180337Z 22006KT 06/M04 A2997 RMK A01 T00581038  RH  050%=      5-min Rain = 0
KBR1 180338Z 22006KT 06/M04 A2997 RMK A01 T00581037  RH  051%=      5-min Rain = 0
KBR1 180339Z 22007KT 06/M04 A2997 RMK A01 T00571037  RH  051%=      5-min Rain = 0
KBR1 180340Z 22006KT 06/M04 A2997 RMK A01 T00561037  RH  051%=      5-min Rain = 0
KBR1 180341Z 23007KT 06/M04 A2997 RMK A01 T00551037  RH  052%=      5-min Rain = 0
KBR1 180342Z 22006KT 05/M04 A2997 RMK A01 T00541037  RH  052%=      5-min Rain = 0
KBR1 180343Z 22006KT 05/M04 A2997 RMK A01 T00531037  RH  052%=      5-min Rain = 0
KBR1 180344Z 22006KT 05/M04 A2997 RMK A01 T00521037  RH  053%=      5-min Rain = 0
KBR1 180345Z 22006KT 05/M04 A2997 RMK A01 T00511037  RH  053%=      5-min Rain = 0
KBR1 180346Z 21007KT 05/M04 A2997 RMK A01 T00501037  RH  054%=      5-min Rain = 0
KBR1 180347Z 22007KT 05/M04 A2996 RMK A01 T00491036  RH  054%=      5-min Rain = 0
KBR1 180348Z 21007KT 05/M04 A2996 RMK A01 T00491035  RH  054%=      5-min Rain = 0
KBR1 180349Z 21008KT 05/M03 A2996 RMK A01 T00501034  RH  054%=      5-min Rain = 0
KBR1 180350Z 21009KT 05/M03 A2996 RMK A01 T00521033  RH  054%=      5-min Rain = 0
KBR1 180351Z 21009KT 05/M03 A2996 RMK A01 T00531032  RH  054%=      5-min Rain = 0
KBR1 180352Z 21009KT 06/M03 A2996 RMK A01 T00551031  RH  054%=      5-min Rain = 0
KBR1 180353Z 21008KT 06/M03 A2996 RMK A01 T00561031  RH  053%=      5-min Rain = 0
KBR1 180354Z 21008KT 06/M03 A2996 RMK A01 T00561032  RH  053%=      5-min Rain = 0
KBR1 180355Z 21008KT 06/M03 A2996 RMK A01 T00561032  RH  053%=      5-min Rain = 0
KBR1 180356Z 22008KT 06/M03 A2996 RMK A01 T00561032  RH  053%=      5-min Rain = 0
KBR1 180357Z 21008KT 06/M03 A2996 RMK A01 T00561032  RH  053%=      5-min Rain = 0
KBR1 180358Z 21008KT 06/M03 A2996 RMK A01 T00561032  RH  053%=      5-min Rain = 0
KBR1 180359Z 21009KT 06/M03 A2996 RMK A01 T00561032  RH  053%=      5-min Rain = 0
KBR1 180400Z 21009KT 06/M03 A2996 RMK A01 T00561031  RH  053%=      5-min Rain = 0
KBR1 180401Z 21009KT 06/M03 A2996 RMK A01 T00561031  RH  053%=      5-min Rain = 0
KBR1 180402Z 21009KT 06/M03 A2995 RMK A01 T00571031  RH  053%=      5-min Rain = 0
KBR1 180403Z 21009KT 06/M03 A2995 RMK A01 T00571031  RH  053%=      5-min Rain = 0
KBR1 180404Z 21009KT 06/M03 A2995 RMK A01 T00591030  RH  053%=      5-min Rain = 0
KBR1 180405Z 21009KT 06/M03 A2995 RMK A01 T00611030  RH  052%=      5-min Rain = 0
KBR1 180406Z 21009KT 06/M03 A2995 RMK A01 T00621030  RH  052%=      5-min Rain = 0
KBR1 180407Z 21009KT 06/M03 A2995 RMK A01 T00631030  RH  052%=      5-min Rain = 0
KBR1 180408Z 21009KT 06/M03 A2995 RMK A01 T00631030  RH  051%=      5-min Rain = 0
KBR1 180409Z 21009KT 06/M03 A2995 RMK A01 T00641029  RH  051%=      5-min Rain = 0
KBR1 180410Z 21008KT 06/M03 A2995 RMK A01 T00631030  RH  051%=      5-min Rain = 0
KBR1 180411Z 21008KT 06/M03 A2995 RMK A01 T00631030  RH  051%=      5-min Rain = 0
KBR1 180412Z 21008KT 06/M03 A2995 RMK A01 T00631030  RH  051%=      5-min Rain = 0
KBR1 180413Z 21008KT 06/M03 A2995 RMK A01 T00621031  RH  051%=      5-min Rain = 0
KBR1 180414Z 22007KT 06/M03 A2995 RMK A01 T00611031  RH  051%=      5-min Rain = 0
KBR1 180415Z 21007KT 06/M03 A2995 RMK A01 T00611031  RH  052%=      5-min Rain = 0
KBR1 180416Z 21008KT 06/M03 A2995 RMK A01 T00611031  RH  052%=      5-min Rain = 0
KBR1 180417Z 21008KT 06/M03 A2995 RMK A01 T00601032  RH  052%=      5-min Rain = 0
KBR1 180418Z 21008KT 06/M03 A2995 RMK A01 T00601032  RH  052%=      5-min Rain = 0
KBR1 180419Z 21007KT 06/M03 A2995 RMK A01 T00611031  RH  052%=      5-min Rain = 0
KBR1 180420Z 21007KT 06/M03 A2995 RMK A01 T00601032  RH  052%=      5-min Rain = 0
KBR1 180421Z 21007KT 06/M03 A2995 RMK A01 T00601032  RH  052%=      5-min Rain = 0
KBR1 180422Z 21007KT 06/M03 A2995 RMK A01 T00591033  RH  052%=      5-min Rain = 0
KBR1 180423Z 21006KT 06/M03 A2995 RMK A01 T00591033  RH  052%=      5-min Rain = 0
KBR1 180424Z 21007KT 06/M03 A2995 RMK A01 T00591033  RH  052%=      5-min Rain = 0
KBR1 180425Z 21007KT 06/M03 A2995 RMK A01 T00591032  RH  052%=      5-min Rain = 0
KBR1 180426Z 21007KT 06/M03 A2995 RMK A01 T00611032  RH  051%=      5-min Rain = 0
KBR1 180427Z 21007KT 06/M03 A2995 RMK A01 T00611033  RH  051%=      5-min Rain = 0
KBR1 180428Z 21007KT 06/M03 A2995 RMK A01 T00611033  RH  051%=      5-min Rain = 0
KBR1 180429Z 21006KT 06/M03 A2995 RMK A01 T00611033  RH  051%=      5-min Rain = 0
KBR1 180430Z 22007KT 06/M03 A2995 RMK A01 T00611033  RH  051%=      5-min Rain = 0
KBR1 180431Z 22006KT 06/M03 A2995 RMK A01 T00611033  RH  051%=      5-min Rain = 0
KBR1 180432Z 22006KT 06/M03 A2995 RMK A01 T00611033  RH  051%=      5-min Rain = 0
KBR1 180433Z 21006KT 06/M03 A2995 RMK A01 T00611033  RH  051%=      5-min Rain = 0
KBR1 180434Z 22005KT 06/M03 A2995 RMK A01 T00621033  RH  051%=      5-min Rain = 0
KBR1 180435Z 22005KT 06/M03 A2995 RMK A01 T00621033  RH  051%=      5-min Rain = 0
KBR1 180436Z 21005KT 06/M03 A2995 RMK A01 T00621033  RH  050%=      5-min Rain = 0
KBR1 180437Z 22005KT 06/M03 A2995 RMK A01 T00621033  RH  051%=      5-min Rain = 0
KBR1 180438Z 21005KT 06/M03 A2995 RMK A01 T00621034  RH  050%=      5-min Rain = 0
KBR1 180439Z 22005KT 06/M03 A2995 RMK A01 T00621033  RH  051%=      5-min Rain = 0
KBR1 180440Z 22005KT 06/M03 A2996 RMK A01 T00611033  RH  051%=      5-min Rain = 0
KBR1 180441Z 21004KT 06/M03 A2995 RMK A01 T00611033  RH  051%=      5-min Rain = 0
KBR1 180442Z 21004KT 06/M03 A2995 RMK A01 T00611033  RH  051%=      5-min Rain = 0
KBR1 180443Z 21004KT 06/M03 A2995 RMK A01 T00601034  RH  051%=      5-min Rain = 0
KBR1 180444Z 22004KT 06/M03 A2996 RMK A01 T00601034  RH  051%=      5-min Rain = 0
KBR1 180445Z 21004KT 06/M03 A2995 RMK A01 T00611034  RH  050%=      5-min Rain = 0
KBR1 180446Z 21003KT 06/M03 A2995 RMK A01 T00621034  RH  050%=      5-min Rain = 0
KBR1 180447Z 22003KT 06/M04 A2996 RMK A01 T00621035  RH  050%=      5-min Rain = 0
KBR1 180448Z 22003KT 06/M04 A2996 RMK A01 T00621035  RH  050%=      5-min Rain = 0
KBR1 180449Z 22003KT 06/M04 A2996 RMK A01 T00611035  RH  050%=      5-min Rain = 0
KBR1 180450Z 22002KT 06/M04 A2996 RMK A01 T00611035  RH  050%=      5-min Rain = 0
KBR1 180451Z 22003KT 06/M04 A2996 RMK A01 T00611035  RH  050%=      5-min Rain = 0
KBR1 180452Z 23002KT 06/M04 A2996 RMK A01 T00621035  RH  050%=      5-min Rain = 0
KBR1 180453Z 24003KT 06/M04 A2996 RMK A01 T00621035  RH  050%=      5-min Rain = 0
KBR1 180454Z 25002KT 06/M04 A2996 RMK A01 T00641035  RH  049%=      5-min Rain = 0
KBR1 180455Z 26002KT 07/M04 A2996 RMK A01 T00651035  RH  049%=      5-min Rain = 0
KBR1 180456Z 24001KT 07/M04 A2996 RMK A01 T00651036  RH  049%=      5-min Rain = 0
KBR1 180457Z 25003KT 07/M04 A2996 RMK A01 T00651035  RH  049%=      5-min Rain = 0
KBR1 180458Z 24003KT 07/M04 A2996 RMK A01 T00651035  RH  049%=      5-min Rain = 0
KBR1 180459Z 24002KT 07/M04 A2996 RMK A01 T00651035  RH  049%=      5-min Rain = 0
KBR1 180500Z 25003KT 06/M04 A2996 RMK A01 T00641036  RH  049%=      5-min Rain = 0
KBR1 180501Z 24003KT 07/M04 A2996 RMK A01 T00651036  RH  049%=      5-min Rain = 0
KBR1 180502Z 24002KT 07/M04 A2996 RMK A01 T00651035  RH  049%=      5-min Rain = 0
KBR1 180503Z 26004KT 06/M04 A2996 RMK A01 T00641035  RH  049%=      5-min Rain = 0
KBR1 180504Z 26002KT 06/M04 A2995 RMK A01 T00641036  RH  049%=      5-min Rain = 0
KBR1 180505Z 25002KT 06/M04 A2995 RMK A01 T00641035  RH  049%=      5-min Rain = 0
KBR1 180506Z 25002KT 06/M04 A2995 RMK A01 T00621036  RH  049%=      5-min Rain = 0
KBR1 180507Z 24004KT 06/M04 A2995 RMK A01 T00611036  RH  050%=      5-min Rain = 0
KBR1 180508Z 23002KT 06/M04 A2995 RMK A01 T00611036  RH  050%=      5-min Rain = 0
KBR1 180509Z 21003KT 06/M04 A2995 RMK A01 T00601036  RH  050%=      5-min Rain = 0
KBR1 180510Z 21002KT 06/M04 A2995 RMK A01 T00601037  RH  050%=      5-min Rain = 0
KBR1 180511Z 21003KT 06/M04 A2995 RMK A01 T00601037  RH  050%=      5-min Rain = 0
KBR1 180512Z 20003KT 06/M04 A2995 RMK A01 T00611036  RH  050%=      5-min Rain = 0
KBR1 180513Z 20003KT 06/M04 A2995 RMK A01 T00621036  RH  050%=      5-min Rain = 0
KBR1 180514Z 21003KT 06/M04 A2995 RMK A01 T00621037  RH  049%=      5-min Rain = 0
KBR1 180515Z 23004KT 06/M04 A2995 RMK A01 T00621037  RH  049%=      5-min Rain = 0
KBR1 180516Z 22003KT 06/M04 A2995 RMK A01 T00621037  RH  049%=      5-min Rain = 0
KBR1 180517Z 22003KT 06/M04 A2995 RMK A01 T00611037  RH  049%=      5-min Rain = 0
KBR1 180518Z 22004KT 06/M04 A2995 RMK A01 T00601038  RH  050%=      5-min Rain = 0
KBR1 180519Z 22004KT 06/M04 A2995 RMK A01 T00581038  RH  050%=      5-min Rain = 0
KBR1 180520Z 23004KT 06/M04 A2995 RMK A01 T00581038  RH  050%=      5-min Rain = 0
KBR1 180521Z 23004KT 06/M04 A2995 RMK A01 T00571037  RH  051%=      5-min Rain = 0
KBR1 180522Z 23004KT 06/M04 A2995 RMK A01 T00571037  RH  051%=      5-min Rain = 0
KBR1 180523Z 23005KT 06/M04 A2995 RMK A01 T00561038  RH  051%=      5-min Rain = 0
KBR1 180524Z 22005KT 06/M04 A2995 RMK A01 T00571037  RH  051%=      5-min Rain = 0
KBR1 180525Z 22005KT 06/M04 A2995 RMK A01 T00571037  RH  051%=      5-min Rain = 0
KBR1 180526Z 22005KT 06/M04 A2995 RMK A01 T00571037  RH  051%=      5-min Rain = 0
KBR1 180527Z 22005KT 06/M04 A2995 RMK A01 T00561037  RH  051%=      5-min Rain = 0
KBR1 180528Z 22005KT 06/M04 A2995 RMK A01 T00571037  RH  051%=      5-min Rain = 0
KBR1 180529Z 22005KT 06/M04 A2995 RMK A01 T00561037  RH  051%=      5-min Rain = 0
KBR1 180530Z 22005KT 06/M04 A2995 RMK A01 T00561037  RH  051%=      5-min Rain = 0
KBR1 180531Z 22006KT 06/M04 A2994 RMK A01 T00551037  RH  051%=      5-min Rain = 0
KBR1 180532Z 22006KT 05/M04 A2994 RMK A01 T00541038  RH  052%=      5-min Rain = 0
KBR1 180533Z 23007KT 05/M04 A2994 RMK A01 T00541038  RH  052%=      5-min Rain = 0
KBR1 180534Z 23006KT 05/M04 A2994 RMK A01 T00541038  RH  051%=      5-min Rain = 0
KBR1 180535Z 23006KT 06/M04 A2994 RMK A01 T00551038  RH  051%=      5-min Rain = 0
KBR1 180536Z 22006KT 06/M04 A2994 RMK A01 T00561037  RH  051%=      5-min Rain = 0
KBR1 180537Z 22006KT 06/M04 A2994 RMK A01 T00551037  RH  052%=      5-min Rain = 0
KBR1 180538Z 22006KT 05/M04 A2994 RMK A01 T00541037  RH  052%=      5-min Rain = 0
KBR1 180539Z 22006KT 05/M04 A2994 RMK A01 T00521037  RH  052%=      5-min Rain = 0
KBR1 180540Z 22006KT 05/M04 A2994 RMK A01 T00511037  RH  053%=      5-min Rain = 0
KBR1 180541Z 23007KT 05/M04 A2994 RMK A01 T00511037  RH  053%=      5-min Rain = 0
KBR1 180542Z 23006KT 05/M04 A2994 RMK A01 T00511037  RH  053%=      5-min Rain = 0
KBR1 180543Z 24006KT 05/M04 A2994 RMK A01 T00511037  RH  053%=      5-min Rain = 0
KBR1 180544Z 23006KT 05/M04 A2994 RMK A01 T00501037  RH  053%=      5-min Rain = 0
KBR1 180545Z 22006KT 05/M04 A2994 RMK A01 T00501038  RH  053%=      5-min Rain = 0
KBR1 180546Z 23006KT 05/M04 A2994 RMK A01 T00501037  RH  053%=      5-min Rain = 0
KBR1 180547Z 23006KT 05/M04 A2994 RMK A01 T00501037  RH  053%=      5-min Rain = 0
KBR1 180548Z 23005KT 05/M04 A2994 RMK A01 T00501037  RH  053%=      5-min Rain = 0
KBR1 180549Z 23005KT 05/M04 A2994 RMK A01 T00501037  RH  053%=      5-min Rain = 0
KBR1 180550Z 22005KT 05/M04 A2993 RMK A01 T00501038  RH  053%=      5-min Rain = 0
KBR1 180551Z 22006KT 05/M04 A2993 RMK A01 T00511038  RH  053%=      5-min Rain = 0
KBR1 180552Z 22006KT 05/M04 A2993 RMK A01 T00511038  RH  053%=      5-min Rain = 0
KBR1 180553Z 22006KT 05/M04 A2993 RMK A01 T00511038  RH  053%=      5-min Rain = 0
KBR1 180554Z 21007KT 05/M04 A2993 RMK A01 T00511038  RH  053%=      5-min Rain = 0
KBR1 180555Z 22007KT 05/M04 A2993 RMK A01 T00521038  RH  052%=      5-min Rain = 0
KBR1 180556Z 22007KT 05/M04 A2993 RMK A01 T00531038  RH  052%=      5-min Rain = 0
KBR1 180557Z 22007KT 05/M04 A2993 RMK A01 T00531038  RH  052%=      5-min Rain = 0
KBR1 180558Z 22007KT 05/M04 A2993 RMK A01 T00531039  RH  052%=      5-min Rain = 0
KBR1 180559Z 21006KT 05/M04 A2993 RMK A01 T00531039  RH  052%=      5-min Rain = 0

Page generated in 0.1322 seconds.